ITY609 KJFK-LIRF
Flight info
| Callsign | ITY609 |
|---|---|
| Flight time | 7h 46m |
| Altitude | 35000 |
| Route | DCT MERIT DCT HFD DCT PUT DCT BRADD DCT NANSO/M080F370 DCT RAFIN DCT 45N050W 47N040W 49N030W 51N020W DCT DINIM DCT ELSOX/M081F390 DCT TAKAS/N0466F390 DCT ALUTA DCT TERKU DCT KORER DCT LEMKA DCT BEBIX/N0462F380 DCT VALKU/N0465F390 DCT TIS DCT MEBAK DCT GIPNO DCT BALSI DCT OBIGO DCT ROBEX DCT LAPRI/N0459F400 DCT MOGBO/N0455F390 DCT ELB/N0450F400 DCT ELKAP ELKAP3A |
| Aircraft | A339/H-SADE1E2E3GHIJ3J5M1P2RWXY/LB2D1 |
Departure
| Time | 2026-05-05 12:15 |
|---|---|
| Airport | John F. Kennedy International Airport (KJFK) |
Arrival
| Time | 2026-05-05 20:02 |
|---|---|
| Airport | Rome–Fiumicino Leonardo da Vinci International Airport (LIRF) |
| Time | Latitude | Longitude | Altitude | Speed | Heading |
|---|---|---|---|---|---|
| 2026-05-05 11:27 | 40.64176 | -73.79317 | 27 ft | 0 kts | 108° |
| 2026-05-05 11:49 | 40.64176 | -73.79318 | 26 ft | 0 kts | 108° |
| 2026-05-05 11:51 | 40.64177 | -73.79318 | 26 ft | 0 kts | 108° |
| 2026-05-05 11:59 | 40.64178 | -73.79327 | 25 ft | 4 kts | 110° |
| 2026-05-05 11:59 | 40.64188 | -73.79359 | 25 ft | 4 kts | 126° |
| 2026-05-05 11:59 | 40.64205 | -73.79386 | 32 ft | 4 kts | 141° |
| 2026-05-05 12:00 | 40.64226 | -73.79407 | 26 ft | 3 kts | 151° |
| 2026-05-05 12:00 | 40.64230 | -73.79410 | 32 ft | 0 kts | 152° |
| 2026-05-05 12:03 | 40.64226 | -73.79407 | 25 ft | 0 kts | 152° |
| 2026-05-05 12:03 | 40.64220 | -73.79402 | 25 ft | 3 kts | 151° |
| 2026-05-05 12:03 | 40.64218 | -73.79401 | 25 ft | 3 kts | 153° |
| 2026-05-05 12:04 | 40.64202 | -73.79417 | 26 ft | 2 kts | 225° |
| 2026-05-05 12:04 | 40.64203 | -73.79446 | 26 ft | 5 kts | 265° |
| 2026-05-05 12:04 | 40.64178 | -73.79494 | 26 ft | 8 kts | 217° |
| 2026-05-05 12:05 | 40.64110 | -73.79499 | 31 ft | 12 kts | 167° |
| 2026-05-05 12:05 | 40.64035 | -73.79417 | 32 ft | 16 kts | 123° |
| 2026-05-05 12:05 | 40.63971 | -73.79276 | 31 ft | 20 kts | 121° |
| 2026-05-05 12:05 | 40.63891 | -73.79102 | 31 ft | 24 kts | 121° |
| 2026-05-05 12:06 | 40.63802 | -73.78908 | 26 ft | 24 kts | 121° |
| 2026-05-05 12:06 | 40.63756 | -73.78807 | 27 ft | 14 kts | 121° |
| 2026-05-05 12:06 | 40.63699 | -73.78681 | 27 ft | 18 kts | 120° |
| 2026-05-05 12:06 | 40.63628 | -73.78521 | 27 ft | 22 kts | 120° |
| 2026-05-05 12:07 | 40.63548 | -73.78345 | 27 ft | 24 kts | 121° |
| 2026-05-05 12:07 | 40.63473 | -73.78179 | 27 ft | 14 kts | 121° |
| 2026-05-05 12:07 | 40.63416 | -73.78047 | 26 ft | 19 kts | 113° |
| 2026-05-05 12:07 | 40.63449 | -73.77880 | 26 ft | 22 kts | 43° |
| 2026-05-05 12:08 | 40.63574 | -73.77772 | 27 ft | 22 kts | 31° |
| 2026-05-05 12:08 | 40.63706 | -73.77671 | 32 ft | 22 kts | 30° |
| 2026-05-05 12:08 | 40.63839 | -73.77569 | 31 ft | 22 kts | 31° |
| 2026-05-05 12:08 | 40.63974 | -73.77463 | 27 ft | 22 kts | 31° |
| 2026-05-05 12:09 | 40.64109 | -73.77357 | 32 ft | 23 kts | 31° |
| 2026-05-05 12:09 | 40.64245 | -73.77250 | 30 ft | 23 kts | 31° |
| 2026-05-05 12:09 | 40.64363 | -73.77159 | 31 ft | 18 kts | 30° |
| 2026-05-05 12:09 | 40.64473 | -73.77095 | 29 ft | 16 kts | 8° |
| 2026-05-05 12:10 | 40.64550 | -73.77075 | 29 ft | 9 kts | 42° |
| 2026-05-05 12:10 | 40.64571 | -73.76997 | 29 ft | 10 kts | 86° |
| 2026-05-05 12:10 | 40.64599 | -73.76922 | 31 ft | 9 kts | 36° |
| 2026-05-05 12:10 | 40.64657 | -73.76877 | 26 ft | 10 kts | 31° |
| 2026-05-05 12:11 | 40.64722 | -73.76825 | 28 ft | 11 kts | 31° |
| 2026-05-05 12:11 | 40.64794 | -73.76767 | 27 ft | 13 kts | 32° |
| 2026-05-05 12:11 | 40.64869 | -73.76706 | 27 ft | 13 kts | 31° |
| 2026-05-05 12:11 | 40.64947 | -73.76643 | 27 ft | 13 kts | 31° |
| 2026-05-05 12:12 | 40.65003 | -73.76565 | 27 ft | 8 kts | 79° |
| 2026-05-05 12:12 | 40.64997 | -73.76534 | 27 ft | 0 kts | 110° |
| 2026-05-05 12:13 | 40.64993 | -73.76521 | 28 ft | 7 kts | 110° |
| 2026-05-05 12:13 | 40.64960 | -73.76452 | 28 ft | 10 kts | 137° |
| 2026-05-05 12:14 | 40.64888 | -73.76462 | 27 ft | 12 kts | 204° |
| 2026-05-05 12:14 | 40.64868 | -73.76477 | 27 ft | 3 kts | 209° |
| 2026-05-05 12:14 | 40.64827 | -73.76508 | 27 ft | 17 kts | 210° |
| 2026-05-05 12:14 | 40.64506 | -73.76760 | 28 ft | 91 kts | 211° |
| 2026-05-05 12:15 | 40.63773 | -73.77335 | 27 ft | 151 kts | 211° |
| 2026-05-05 12:15 | 40.62778 | -73.78131 | 329 ft | 173 kts | 211° |
| 2026-05-05 12:15 | 40.61724 | -73.79014 | 836 ft | 187 kts | 213° |
| 2026-05-05 12:15 | 40.60584 | -73.79903 | 1453 ft | 193 kts | 214° |
| 2026-05-05 12:16 | 40.59319 | -73.80492 | 2145 ft | 204 kts | 192° |
| 2026-05-05 12:16 | 40.57820 | -73.80155 | 2466 ft | 239 kts | 162° |
| 2026-05-05 12:16 | 40.56416 | -73.78739 | 2701 ft | 272 kts | 134° |
| 2026-05-05 12:16 | 40.55554 | -73.76446 | 3148 ft | 288 kts | 107° |
| 2026-05-05 12:17 | 40.55073 | -73.73878 | 3708 ft | 290 kts | 107° |
| 2026-05-05 12:17 | 40.54601 | -73.71340 | 4302 ft | 290 kts | 107° |
| 2026-05-05 12:17 | 40.54339 | -73.68701 | 4836 ft | 296 kts | 87° |
| 2026-05-05 12:17 | 40.54902 | -73.66096 | 5381 ft | 299 kts | 60° |
| 2026-05-05 12:18 | 40.55983 | -73.63753 | 5931 ft | 301 kts | 57° |
| 2026-05-05 12:18 | 40.57088 | -73.61412 | 6514 ft | 301 kts | 57° |
| 2026-05-05 12:18 | 40.58199 | -73.59062 | 7046 ft | 304 kts | 57° |
| 2026-05-05 12:18 | 40.59327 | -73.56692 | 7599 ft | 306 kts | 57° |
| 2026-05-05 12:19 | 40.60615 | -73.54449 | 8065 ft | 309 kts | 40° |
| 2026-05-05 12:19 | 40.62419 | -73.52961 | 8645 ft | 306 kts | 22° |
| 2026-05-05 12:19 | 40.64383 | -73.51839 | 9146 ft | 309 kts | 19° |
| 2026-05-05 12:19 | 40.66374 | -73.50740 | 9711 ft | 312 kts | 19° |
| 2026-05-05 12:20 | 40.68391 | -73.49651 | 10186 ft | 316 kts | 19° |
| 2026-05-05 12:20 | 40.70486 | -73.48555 | 10356 ft | 332 kts | 18° |
| 2026-05-05 12:20 | 40.72694 | -73.47424 | 10507 ft | 348 kts | 18° |
| 2026-05-05 12:20 | 40.74997 | -73.46252 | 10699 ft | 361 kts | 18° |
| 2026-05-05 12:21 | 40.77328 | -73.45066 | 11148 ft | 364 kts | 18° |
| 2026-05-05 12:21 | 40.79704 | -73.43855 | 11603 ft | 369 kts | 18° |
| 2026-05-05 12:21 | 40.82106 | -73.42627 | 12127 ft | 370 kts | 18° |
| 2026-05-05 12:21 | 40.84517 | -73.41393 | 12613 ft | 372 kts | 18° |
| 2026-05-05 12:22 | 40.86943 | -73.40152 | 13123 ft | 375 kts | 17° |
| 2026-05-05 12:22 | 40.89384 | -73.38903 | 13640 ft | 377 kts | 17° |
| 2026-05-05 12:22 | 40.91835 | -73.37648 | 14080 ft | 379 kts | 17° |
| 2026-05-05 12:22 | 40.94272 | -73.36401 | 14527 ft | 381 kts | 17° |
| 2026-05-05 12:23 | 40.96751 | -73.35132 | 14966 ft | 384 kts | 17° |
| 2026-05-05 12:23 | 40.99247 | -73.33853 | 15410 ft | 386 kts | 18° |
| 2026-05-05 12:23 | 41.01757 | -73.32566 | 15836 ft | 388 kts | 18° |
| 2026-05-05 12:23 | 41.04289 | -73.31266 | 16262 ft | 391 kts | 18° |
| 2026-05-05 12:24 | 41.06829 | -73.29961 | 16685 ft | 393 kts | 18° |
| 2026-05-05 12:24 | 41.09390 | -73.28645 | 17080 ft | 396 kts | 18° |
| 2026-05-05 12:24 | 41.11973 | -73.27316 | 17510 ft | 399 kts | 18° |
| 2026-05-05 12:24 | 41.14568 | -73.25980 | 17934 ft | 401 kts | 18° |
| 2026-05-05 12:25 | 41.17174 | -73.24636 | 18345 ft | 403 kts | 18° |
| 2026-05-05 12:25 | 41.19802 | -73.23281 | 18690 ft | 407 kts | 18° |
| 2026-05-05 12:25 | 41.22443 | -73.21919 | 19075 ft | 408 kts | 18° |
| 2026-05-05 12:25 | 41.25097 | -73.20549 | 19469 ft | 410 kts | 19° |
| 2026-05-05 12:26 | 41.27765 | -73.19170 | 19858 ft | 412 kts | 19° |
| 2026-05-05 12:26 | 41.30441 | -73.17786 | 20254 ft | 414 kts | 19° |
| 2026-05-05 12:26 | 41.33135 | -73.16392 | 20633 ft | 416 kts | 19° |
| 2026-05-05 12:26 | 41.35819 | -73.14916 | 20999 ft | 420 kts | 26° |
| 2026-05-05 12:27 | 41.38239 | -73.12705 | 21387 ft | 425 kts | 42° |
| 2026-05-05 12:27 | 41.40167 | -73.09719 | 21766 ft | 427 kts | 58° |
| 2026-05-05 12:27 | 41.41680 | -73.06319 | 22143 ft | 428 kts | 61° |
| 2026-05-05 12:27 | 41.42646 | -73.04026 | 22420 ft | 429 kts | 62° |
| 2026-05-05 12:28 | 41.44113 | -73.00545 | 22819 ft | 431 kts | 61° |
| 2026-05-05 12:28 | 41.45605 | -72.97064 | 23212 ft | 434 kts | 61° |
| 2026-05-05 12:28 | 41.47120 | -72.93578 | 23589 ft | 435 kts | 60° |
| 2026-05-05 12:28 | 41.48658 | -72.90070 | 23936 ft | 437 kts | 60° |
| 2026-05-05 12:29 | 41.50197 | -72.86570 | 24288 ft | 438 kts | 60° |
| 2026-05-05 12:29 | 41.51743 | -72.83053 | 24649 ft | 440 kts | 60° |
| 2026-05-05 12:29 | 41.53271 | -72.79572 | 24991 ft | 441 kts | 60° |
| 2026-05-05 12:29 | 41.54826 | -72.76027 | 25331 ft | 443 kts | 60° |
| 2026-05-05 12:30 | 41.56388 | -72.72460 | 25669 ft | 445 kts | 60° |
| 2026-05-05 12:30 | 41.57952 | -72.68885 | 25984 ft | 447 kts | 60° |
| 2026-05-05 12:30 | 41.59520 | -72.65294 | 26303 ft | 448 kts | 60° |
| 2026-05-05 12:30 | 41.61092 | -72.61690 | 26641 ft | 450 kts | 60° |
| 2026-05-05 12:31 | 41.62668 | -72.58072 | 26977 ft | 451 kts | 60° |
| 2026-05-05 12:31 | 41.64248 | -72.54441 | 27308 ft | 452 kts | 60° |
| 2026-05-05 12:31 | 41.65859 | -72.50803 | 27625 ft | 454 kts | 59° |
| 2026-05-05 12:31 | 41.67500 | -72.47179 | 27940 ft | 456 kts | 59° |
| 2026-05-05 12:32 | 41.69152 | -72.43546 | 28215 ft | 458 kts | 59° |
| 2026-05-05 12:32 | 41.70808 | -72.39892 | 28539 ft | 460 kts | 59° |
| 2026-05-05 12:32 | 41.72466 | -72.36219 | 28840 ft | 461 kts | 59° |
| 2026-05-05 12:32 | 41.74123 | -72.32534 | 29131 ft | 463 kts | 59° |
| 2026-05-05 12:33 | 41.75784 | -72.28835 | 29421 ft | 464 kts | 59° |
| 2026-05-05 12:33 | 41.77450 | -72.25116 | 29694 ft | 466 kts | 59° |
| 2026-05-05 12:33 | 41.79117 | -72.21391 | 30035 ft | 466 kts | 59° |
| 2026-05-05 12:33 | 41.80765 | -72.17702 | 30285 ft | 469 kts | 59° |
| 2026-05-05 12:34 | 41.82466 | -72.13891 | 30509 ft | 471 kts | 59° |
| 2026-05-05 12:34 | 41.84151 | -72.10110 | 30692 ft | 474 kts | 59° |
| 2026-05-05 12:34 | 41.85823 | -72.06354 | 30949 ft | 476 kts | 59° |
| 2026-05-05 12:34 | 41.87524 | -72.02532 | 31180 ft | 478 kts | 59° |
| 2026-05-05 12:35 | 41.89228 | -71.98696 | 31422 ft | 479 kts | 59° |
| 2026-05-05 12:35 | 41.90939 | -71.94839 | 31649 ft | 481 kts | 59° |
| 2026-05-05 12:35 | 41.92653 | -71.90969 | 31873 ft | 483 kts | 59° |
| 2026-05-05 12:35 | 41.94367 | -71.87084 | 32149 ft | 484 kts | 60° |
| 2026-05-05 12:36 | 41.95887 | -71.83038 | 32334 ft | 486 kts | 66° |
| 2026-05-05 12:36 | 41.97092 | -71.78788 | 32528 ft | 488 kts | 70° |
| 2026-05-05 12:36 | 41.99406 | -71.70144 | 32815 ft | 493 kts | 70° |
| 2026-05-05 12:37 | 42.00583 | -71.65814 | 32974 ft | 494 kts | 70° |
| 2026-05-05 12:37 | 42.01765 | -71.61467 | 33112 ft | 495 kts | 70° |
| 2026-05-05 12:37 | 42.02930 | -71.57171 | 33249 ft | 496 kts | 70° |
| 2026-05-05 12:37 | 42.04109 | -71.52809 | 33400 ft | 496 kts | 70° |
| 2026-05-05 12:38 | 42.05284 | -71.48446 | 33552 ft | 496 kts | 70° |
| 2026-05-05 12:38 | 42.06459 | -71.44072 | 33682 ft | 496 kts | 70° |
| 2026-05-05 12:38 | 42.07630 | -71.39704 | 33828 ft | 496 kts | 70° |
| 2026-05-05 12:38 | 42.08799 | -71.35334 | 33973 ft | 496 kts | 70° |
| 2026-05-05 12:39 | 42.11134 | -71.26579 | 34177 ft | 497 kts | 70° |
| 2026-05-05 12:39 | 42.12301 | -71.22196 | 34302 ft | 497 kts | 70° |
| 2026-05-05 12:39 | 42.13463 | -71.17821 | 34431 ft | 497 kts | 70° |
| 2026-05-05 12:40 | 42.14625 | -71.13437 | 34557 ft | 496 kts | 70° |
| 2026-05-05 12:40 | 42.15784 | -71.09060 | 34683 ft | 496 kts | 70° |
| 2026-05-05 12:40 | 42.16943 | -71.04672 | 34788 ft | 496 kts | 70° |
| 2026-05-05 12:40 | 42.18100 | -71.00283 | 34905 ft | 496 kts | 70° |
| 2026-05-05 12:41 | 42.20405 | -70.91522 | 34916 ft | 495 kts | 70° |
| 2026-05-05 12:41 | 42.22689 | -70.82801 | 34910 ft | 496 kts | 70° |
| 2026-05-05 12:42 | 42.24984 | -70.74010 | 34914 ft | 496 kts | 70° |
| 2026-05-05 12:42 | 42.27269 | -70.65228 | 34912 ft | 496 kts | 70° |
| 2026-05-05 12:43 | 42.29548 | -70.56437 | 34920 ft | 496 kts | 70° |
| 2026-05-05 12:43 | 42.31770 | -70.47833 | 34930 ft | 495 kts | 70° |
| 2026-05-05 12:44 | 42.34031 | -70.39043 | 34924 ft | 495 kts | 70° |
| 2026-05-05 12:44 | 42.36283 | -70.30259 | 34927 ft | 495 kts | 70° |
| 2026-05-05 12:45 | 42.38530 | -70.21461 | 34922 ft | 495 kts | 70° |
| 2026-05-05 12:45 | 42.40756 | -70.12716 | 34936 ft | 494 kts | 70° |
| 2026-05-05 12:46 | 42.42986 | -70.03918 | 34939 ft | 494 kts | 70° |
| 2026-05-05 12:46 | 42.45209 | -69.95115 | 34927 ft | 494 kts | 70° |
| 2026-05-05 12:47 | 42.47428 | -69.86298 | 34926 ft | 495 kts | 70° |
| 2026-05-05 12:47 | 42.49630 | -69.77516 | 34942 ft | 494 kts | 70° |
| 2026-05-05 12:48 | 42.51832 | -69.68700 | 34939 ft | 494 kts | 70° |
| 2026-05-05 12:48 | 42.54030 | -69.59865 | 34941 ft | 494 kts | 70° |
| 2026-05-05 12:49 | 42.56219 | -69.51031 | 34947 ft | 494 kts | 70° |
| 2026-05-05 12:49 | 42.58402 | -69.42191 | 34942 ft | 494 kts | 70° |
| 2026-05-05 12:50 | 42.60582 | -69.33329 | 34952 ft | 494 kts | 70° |
| 2026-05-05 12:50 | 42.62753 | -69.24469 | 34954 ft | 494 kts | 70° |
| 2026-05-05 12:51 | 42.64917 | -69.15605 | 34955 ft | 494 kts | 70° |
| 2026-05-05 12:51 | 42.67068 | -69.06758 | 34960 ft | 495 kts | 70° |
| 2026-05-05 12:52 | 42.69221 | -68.97869 | 34964 ft | 495 kts | 70° |
| 2026-05-05 12:52 | 42.71369 | -68.88970 | 34960 ft | 495 kts | 70° |
| 2026-05-05 12:53 | 42.73508 | -68.80064 | 34970 ft | 495 kts | 70° |
| 2026-05-05 12:53 | 42.75643 | -68.71149 | 34973 ft | 495 kts | 70° |
| 2026-05-05 12:54 | 42.78831 | -68.57766 | 34976 ft | 495 kts | 70° |
| 2026-05-05 12:55 | 42.80935 | -68.48890 | 34969 ft | 495 kts | 70° |
| 2026-05-05 12:55 | 42.83044 | -68.39959 | 34979 ft | 495 kts | 70° |
| 2026-05-05 12:56 | 42.85148 | -68.31014 | 34986 ft | 495 kts | 70° |
| 2026-05-05 12:56 | 42.87246 | -68.22054 | 34985 ft | 495 kts | 70° |
| 2026-05-05 12:57 | 42.89336 | -68.13094 | 34983 ft | 496 kts | 70° |
| 2026-05-05 12:57 | 42.91422 | -68.04118 | 34983 ft | 496 kts | 70° |
| 2026-05-05 12:58 | 42.93485 | -67.95206 | 34982 ft | 496 kts | 70° |
| 2026-05-05 12:58 | 42.95556 | -67.86220 | 34982 ft | 496 kts | 70° |
| 2026-05-05 12:59 | 42.97619 | -67.77232 | 34991 ft | 496 kts | 70° |
| 2026-05-05 12:59 | 42.99679 | -67.68223 | 34987 ft | 497 kts | 70° |
| 2026-05-05 13:00 | 43.02758 | -67.54692 | 34995 ft | 497 kts | 70° |
| 2026-05-05 13:01 | 43.06837 | -67.36622 | 34999 ft | 497 kts | 70° |
| 2026-05-05 13:01 | 43.08868 | -67.27572 | 34989 ft | 498 kts | 70° |
| 2026-05-05 13:02 | 43.10880 | -67.18564 | 35006 ft | 498 kts | 70° |
| 2026-05-05 13:02 | 43.12903 | -67.09500 | 35001 ft | 498 kts | 70° |
| 2026-05-05 13:03 | 43.14902 | -67.00432 | 35005 ft | 498 kts | 72° |
| 2026-05-05 13:03 | 43.16472 | -66.91175 | 35004 ft | 499 kts | 74° |
| 2026-05-05 13:04 | 43.18076 | -66.81932 | 35004 ft | 499 kts | 74° |
| 2026-05-05 13:04 | 43.19684 | -66.72660 | 35010 ft | 500 kts | 74° |
| 2026-05-05 13:05 | 43.21278 | -66.63384 | 35015 ft | 500 kts | 74° |
| 2026-05-05 13:05 | 43.22862 | -66.54098 | 35011 ft | 500 kts | 74° |
| 2026-05-05 13:06 | 43.24427 | -66.44878 | 35017 ft | 500 kts | 74° |
| 2026-05-05 13:06 | 43.25995 | -66.35576 | 35017 ft | 500 kts | 74° |
| 2026-05-05 13:07 | 43.27553 | -66.26259 | 35018 ft | 501 kts | 74° |
| 2026-05-05 13:07 | 43.29103 | -66.16934 | 35020 ft | 501 kts | 74° |
| 2026-05-05 13:08 | 43.30644 | -66.07610 | 35024 ft | 501 kts | 74° |
| 2026-05-05 13:08 | 43.32170 | -65.98332 | 35024 ft | 501 kts | 74° |
| 2026-05-05 13:09 | 43.33697 | -65.88996 | 35033 ft | 501 kts | 75° |
| 2026-05-05 13:09 | 43.35217 | -65.79645 | 35032 ft | 501 kts | 74° |
| 2026-05-05 13:10 | 43.36730 | -65.70292 | 35042 ft | 501 kts | 74° |
| 2026-05-05 13:10 | 43.38236 | -65.60931 | 35040 ft | 501 kts | 75° |
| 2026-05-05 13:11 | 43.39736 | -65.51555 | 35045 ft | 501 kts | 75° |
| 2026-05-05 13:11 | 43.41226 | -65.42185 | 35044 ft | 501 kts | 75° |
| 2026-05-05 13:12 | 43.42710 | -65.32803 | 35044 ft | 502 kts | 75° |
| 2026-05-05 13:12 | 43.44187 | -65.23405 | 35053 ft | 502 kts | 75° |
| 2026-05-05 13:13 | 43.45649 | -65.14055 | 35057 ft | 503 kts | 75° |
| 2026-05-05 13:13 | 43.47112 | -65.04649 | 35055 ft | 503 kts | 75° |
| 2026-05-05 13:14 | 43.48569 | -64.95222 | 35041 ft | 503 kts | 75° |
| 2026-05-05 13:14 | 43.50018 | -64.85792 | 35046 ft | 503 kts | 75° |
| 2026-05-05 13:15 | 43.51459 | -64.76358 | 35056 ft | 503 kts | 75° |
| 2026-05-05 13:15 | 43.52895 | -64.66908 | 35060 ft | 503 kts | 75° |
| 2026-05-05 13:16 | 43.54320 | -64.57472 | 35052 ft | 503 kts | 75° |
| 2026-05-05 13:16 | 43.55499 | -64.49619 | 35063 ft | 503 kts | 75° |
| 2026-05-05 13:17 | 43.56911 | -64.40163 | 35066 ft | 503 kts | 75° |
| 2026-05-05 13:17 | 43.58315 | -64.30708 | 35048 ft | 503 kts | 75° |
| 2026-05-05 13:18 | 43.59711 | -64.21246 | 35054 ft | 503 kts | 75° |
| 2026-05-05 13:18 | 43.61099 | -64.11784 | 35066 ft | 503 kts | 75° |
| 2026-05-05 13:19 | 43.62481 | -64.02306 | 35065 ft | 503 kts | 75° |
| 2026-05-05 13:19 | 43.63853 | -63.92836 | 35061 ft | 503 kts | 75° |
| 2026-05-05 13:20 | 43.65209 | -63.83417 | 35063 ft | 503 kts | 75° |
| 2026-05-05 13:20 | 43.66565 | -63.73942 | 35065 ft | 503 kts | 76° |
| 2026-05-05 13:21 | 43.67913 | -63.64462 | 35071 ft | 503 kts | 76° |
| 2026-05-05 13:21 | 43.69255 | -63.54973 | 35064 ft | 503 kts | 76° |
| 2026-05-05 13:22 | 43.70588 | -63.45479 | 35078 ft | 503 kts | 76° |
| 2026-05-05 13:22 | 43.71915 | -63.35973 | 35070 ft | 504 kts | 76° |
| 2026-05-05 13:23 | 43.73233 | -63.26462 | 35084 ft | 504 kts | 76° |
| 2026-05-05 13:23 | 43.74545 | -63.16939 | 35070 ft | 504 kts | 76° |
| 2026-05-05 13:24 | 43.75844 | -63.07450 | 35074 ft | 504 kts | 76° |
| 2026-05-05 13:24 | 43.77142 | -62.97901 | 35071 ft | 504 kts | 76° |
| 2026-05-05 13:25 | 43.78432 | -62.88357 | 35080 ft | 505 kts | 76° |
| 2026-05-05 13:25 | 43.79714 | -62.78802 | 35082 ft | 505 kts | 76° |
| 2026-05-05 13:26 | 43.80989 | -62.69240 | 35077 ft | 505 kts | 76° |
| 2026-05-05 13:26 | 43.82249 | -62.59722 | 35078 ft | 506 kts | 76° |
| 2026-05-05 13:27 | 43.83509 | -62.50139 | 35086 ft | 506 kts | 76° |
| 2026-05-05 13:27 | 43.84762 | -62.40549 | 35076 ft | 506 kts | 76° |
| 2026-05-05 13:28 | 43.86008 | -62.30950 | 35084 ft | 506 kts | 76° |
| 2026-05-05 13:28 | 43.87246 | -62.21340 | 35084 ft | 506 kts | 76° |
| 2026-05-05 13:29 | 43.88477 | -62.11720 | 35083 ft | 507 kts | 76° |
| 2026-05-05 13:29 | 43.89703 | -62.02077 | 35085 ft | 507 kts | 76° |
| 2026-05-05 13:30 | 43.90919 | -61.92438 | 35091 ft | 507 kts | 76° |
| 2026-05-05 13:30 | 43.92127 | -61.82795 | 35090 ft | 508 kts | 76° |
| 2026-05-05 13:31 | 43.93321 | -61.73205 | 35095 ft | 508 kts | 76° |
| 2026-05-05 13:31 | 43.94514 | -61.63543 | 35088 ft | 509 kts | 76° |
| 2026-05-05 13:32 | 43.95700 | -61.53867 | 35097 ft | 509 kts | 76° |
| 2026-05-05 13:32 | 43.96878 | -61.44189 | 35097 ft | 509 kts | 77° |
| 2026-05-05 13:33 | 43.98049 | -61.34499 | 35100 ft | 509 kts | 77° |
| 2026-05-05 13:33 | 43.99212 | -61.24802 | 35100 ft | 509 kts | 77° |
| 2026-05-05 13:34 | 44.00362 | -61.15149 | 35105 ft | 509 kts | 77° |
| 2026-05-05 13:34 | 44.01509 | -61.05438 | 35098 ft | 510 kts | 77° |
| 2026-05-05 13:35 | 44.02649 | -60.95720 | 35108 ft | 510 kts | 77° |
| 2026-05-05 13:35 | 44.03781 | -60.85994 | 35096 ft | 510 kts | 77° |
| 2026-05-05 13:36 | 44.04905 | -60.76259 | 35109 ft | 510 kts | 77° |
| 2026-05-05 13:36 | 44.06022 | -60.66515 | 35106 ft | 510 kts | 77° |
| 2026-05-05 13:37 | 44.07130 | -60.56763 | 35108 ft | 511 kts | 77° |
| 2026-05-05 13:37 | 44.08225 | -60.47058 | 35106 ft | 511 kts | 77° |
| 2026-05-05 13:38 | 44.09319 | -60.37287 | 35111 ft | 511 kts | 77° |
| 2026-05-05 13:38 | 44.10406 | -60.27497 | 35112 ft | 511 kts | 77° |
| 2026-05-05 13:39 | 44.11483 | -60.17711 | 35111 ft | 512 kts | 77° |
| 2026-05-05 13:39 | 44.12554 | -60.07913 | 35112 ft | 511 kts | 78° |
| 2026-05-05 13:40 | 44.13615 | -59.98119 | 35113 ft | 512 kts | 78° |
| 2026-05-05 13:40 | 44.14671 | -59.88291 | 35115 ft | 513 kts | 78° |
| 2026-05-05 13:41 | 44.15710 | -59.78537 | 35113 ft | 513 kts | 78° |
| 2026-05-05 13:41 | 44.16749 | -59.68710 | 35114 ft | 513 kts | 78° |
| 2026-05-05 13:42 | 44.17097 | -59.65391 | 35128 ft | 513 kts | 78° |
| 2026-05-05 13:44 | 44.17706 | -59.59580 | 35113 ft | 513 kts | 78° |
| 2026-05-05 13:45 | 44.18723 | -59.49805 | 35124 ft | 514 kts | 78° |
| 2026-05-05 13:45 | 44.19741 | -59.39925 | 35112 ft | 515 kts | 78° |
| 2026-05-05 13:46 | 44.20753 | -59.30017 | 35245 ft | 516 kts | 78° |
| 2026-05-05 13:46 | 44.21258 | -59.25049 | 35369 ft | 517 kts | 78° |
| 2026-05-05 13:46 | 44.21760 | -59.20084 | 35480 ft | 517 kts | 79° |
| 2026-05-05 13:47 | 44.22259 | -59.15124 | 35584 ft | 517 kts | 79° |
| 2026-05-05 13:47 | 44.22759 | -59.10154 | 35640 ft | 519 kts | 79° |
| 2026-05-05 13:47 | 44.23256 | -59.05174 | 35751 ft | 519 kts | 79° |
| 2026-05-05 13:47 | 44.23751 | -59.00181 | 35858 ft | 519 kts | 79° |
| 2026-05-05 13:48 | 44.24569 | -58.91883 | 35982 ft | 521 kts | 80° |
| 2026-05-05 13:48 | 44.25060 | -58.86876 | 36099 ft | 521 kts | 80° |
| 2026-05-05 13:48 | 44.25549 | -58.81870 | 36201 ft | 521 kts | 80° |
| 2026-05-05 13:49 | 44.26520 | -58.71846 | 36399 ft | 521 kts | 80° |
| 2026-05-05 13:49 | 44.27003 | -58.66824 | 36504 ft | 521 kts | 80° |
| 2026-05-05 13:49 | 44.27486 | -58.61798 | 36551 ft | 523 kts | 81° |
| 2026-05-05 13:50 | 44.28443 | -58.51735 | 36731 ft | 523 kts | 81° |
| 2026-05-05 13:50 | 44.29385 | -58.41729 | 36920 ft | 524 kts | 81° |
| 2026-05-05 13:51 | 44.30325 | -58.31646 | 37095 ft | 524 kts | 81° |
| 2026-05-05 13:51 | 44.31256 | -58.21567 | 37126 ft | 523 kts | 82° |
| 2026-05-05 13:52 | 44.32177 | -58.11485 | 37124 ft | 523 kts | 82° |
| 2026-05-05 13:52 | 44.33091 | -58.01391 | 37130 ft | 523 kts | 82° |
| 2026-05-05 13:53 | 44.33994 | -57.91315 | 37132 ft | 523 kts | 82° |
| 2026-05-05 13:53 | 44.34891 | -57.81210 | 37128 ft | 524 kts | 82° |
| 2026-05-05 13:54 | 44.35772 | -57.71185 | 37130 ft | 523 kts | 82° |
| 2026-05-05 13:54 | 44.36653 | -57.61074 | 37121 ft | 524 kts | 82° |
| 2026-05-05 13:55 | 44.37522 | -57.50952 | 37129 ft | 524 kts | 82° |
| 2026-05-05 13:55 | 44.38382 | -57.40827 | 37131 ft | 525 kts | 82° |
| 2026-05-05 13:56 | 44.39236 | -57.30683 | 37134 ft | 526 kts | 83° |
| 2026-05-05 13:56 | 44.40082 | -57.20526 | 37136 ft | 526 kts | 83° |
| 2026-05-05 13:57 | 44.40922 | -57.10355 | 37124 ft | 526 kts | 83° |
| 2026-05-05 13:57 | 44.41750 | -57.00178 | 37131 ft | 527 kts | 83° |
| 2026-05-05 13:58 | 44.42570 | -56.89983 | 37138 ft | 528 kts | 83° |
| 2026-05-05 13:58 | 44.43382 | -56.79778 | 37146 ft | 528 kts | 83° |
| 2026-05-05 13:59 | 44.44584 | -56.64500 | 37128 ft | 529 kts | 84° |
| 2026-05-05 14:00 | 44.45772 | -56.49106 | 37138 ft | 530 kts | 84° |
| 2026-05-05 14:00 | 44.46561 | -56.38830 | 37148 ft | 531 kts | 84° |
| 2026-05-05 14:01 | 44.47345 | -56.28527 | 37153 ft | 532 kts | 84° |
| 2026-05-05 14:01 | 44.48119 | -56.18214 | 37139 ft | 532 kts | 84° |
| 2026-05-05 14:02 | 44.48877 | -56.07954 | 37143 ft | 533 kts | 86° |
| 2026-05-05 14:02 | 44.49782 | -55.97638 | 37145 ft | 535 kts | 81° |
| 2026-05-05 14:03 | 44.51031 | -55.87360 | 37154 ft | 535 kts | 81° |
| 2026-05-05 14:03 | 44.52215 | -55.77049 | 37158 ft | 536 kts | 82° |
| 2026-05-05 14:04 | 44.53344 | -55.66723 | 37154 ft | 537 kts | 82° |
| 2026-05-05 14:04 | 44.54459 | -55.56357 | 37143 ft | 538 kts | 82° |
| 2026-05-05 14:05 | 44.55566 | -55.45963 | 37151 ft | 539 kts | 83° |
| 2026-05-05 14:05 | 44.56665 | -55.35560 | 37162 ft | 540 kts | 83° |
| 2026-05-05 14:06 | 44.57760 | -55.25116 | 37162 ft | 540 kts | 83° |
| 2026-05-05 14:06 | 44.58836 | -55.14752 | 37169 ft | 541 kts | 83° |
| 2026-05-05 14:07 | 44.59912 | -55.04296 | 37145 ft | 543 kts | 83° |
| 2026-05-05 14:07 | 44.60983 | -54.93780 | 37159 ft | 544 kts | 83° |
| 2026-05-05 14:08 | 44.62045 | -54.83265 | 37163 ft | 544 kts | 83° |
| 2026-05-05 14:08 | 44.63099 | -54.72722 | 37173 ft | 545 kts | 83° |
| 2026-05-05 14:09 | 44.64144 | -54.62170 | 37179 ft | 545 kts | 83° |
| 2026-05-05 14:09 | 44.65178 | -54.51618 | 37156 ft | 546 kts | 83° |
| 2026-05-05 14:10 | 44.66201 | -54.41094 | 37165 ft | 547 kts | 83° |
| 2026-05-05 14:10 | 44.67220 | -54.30496 | 37173 ft | 547 kts | 83° |
| 2026-05-05 14:11 | 44.68232 | -54.19874 | 37173 ft | 548 kts | 84° |
| 2026-05-05 14:11 | 44.69233 | -54.09247 | 37178 ft | 548 kts | 84° |
| 2026-05-05 14:12 | 44.70224 | -53.98630 | 37170 ft | 548 kts | 84° |
| 2026-05-05 14:12 | 44.71205 | -53.88009 | 37173 ft | 548 kts | 84° |
| 2026-05-05 14:13 | 44.72177 | -53.77375 | 37173 ft | 548 kts | 84° |
| 2026-05-05 14:13 | 44.73138 | -53.66742 | 37196 ft | 548 kts | 84° |
| 2026-05-05 14:14 | 44.74091 | -53.56095 | 37180 ft | 548 kts | 84° |
| 2026-05-05 14:14 | 44.75034 | -53.45446 | 37173 ft | 548 kts | 84° |
| 2026-05-05 14:15 | 44.75960 | -53.34871 | 37169 ft | 548 kts | 84° |
| 2026-05-05 14:15 | 44.76882 | -53.24220 | 37168 ft | 548 kts | 84° |
| 2026-05-05 14:16 | 44.77796 | -53.13554 | 37171 ft | 549 kts | 85° |
| 2026-05-05 14:16 | 44.78699 | -53.02887 | 37171 ft | 549 kts | 85° |
| 2026-05-05 14:17 | 44.79593 | -52.92216 | 37171 ft | 549 kts | 85° |
| 2026-05-05 14:17 | 44.80476 | -52.81547 | 37182 ft | 549 kts | 85° |
| 2026-05-05 14:18 | 44.81350 | -52.70872 | 37180 ft | 549 kts | 85° |
| 2026-05-05 14:18 | 44.82214 | -52.60189 | 37187 ft | 549 kts | 85° |
| 2026-05-05 14:19 | 44.83067 | -52.49512 | 37184 ft | 548 kts | 85° |
| 2026-05-05 14:19 | 44.83911 | -52.38835 | 37171 ft | 548 kts | 85° |
| 2026-05-05 14:20 | 44.84744 | -52.28152 | 37174 ft | 548 kts | 85° |
| 2026-05-05 14:20 | 44.85562 | -52.17532 | 37182 ft | 549 kts | 85° |
| 2026-05-05 14:21 | 44.86376 | -52.06839 | 37185 ft | 549 kts | 85° |
| 2026-05-05 14:21 | 44.87181 | -51.96141 | 37188 ft | 549 kts | 86° |
| 2026-05-05 14:22 | 44.87982 | -51.85424 | 37163 ft | 549 kts | 86° |
| 2026-05-05 14:22 | 44.88681 | -51.74692 | 37171 ft | 549 kts | 86° |
| 2026-05-05 14:23 | 44.89483 | -51.63969 | 37184 ft | 551 kts | 86° |
| 2026-05-05 14:23 | 44.90280 | -51.53218 | 37211 ft | 551 kts | 86° |
| 2026-05-05 14:24 | 44.91037 | -51.42475 | 37200 ft | 551 kts | 86° |
| 2026-05-05 14:24 | 44.91778 | -51.31698 | 37188 ft | 551 kts | 87° |
| 2026-05-05 14:25 | 44.92506 | -51.20983 | 37186 ft | 552 kts | 87° |
| 2026-05-05 14:25 | 44.93227 | -51.10184 | 37200 ft | 553 kts | 87° |
| 2026-05-05 14:26 | 44.93939 | -50.99373 | 37210 ft | 553 kts | 87° |
| 2026-05-05 14:26 | 44.94642 | -50.88551 | 37222 ft | 553 kts | 87° |
| 2026-05-05 14:27 | 44.95334 | -50.77737 | 37173 ft | 553 kts | 87° |
| 2026-05-05 14:27 | 44.96018 | -50.66911 | 37197 ft | 554 kts | 88° |
| 2026-05-05 14:28 | 44.96691 | -50.56062 | 37207 ft | 555 kts | 88° |
| 2026-05-05 14:28 | 44.97355 | -50.45194 | 37211 ft | 556 kts | 88° |
| 2026-05-05 14:29 | 44.98005 | -50.34388 | 37220 ft | 556 kts | 88° |
| 2026-05-05 14:29 | 44.98650 | -50.23498 | 37218 ft | 556 kts | 88° |
| 2026-05-05 14:30 | 44.99286 | -50.12590 | 37207 ft | 557 kts | 88° |
| 2026-05-05 14:30 | 45.00009 | -50.01670 | 37219 ft | 560 kts | 82° |
| 2026-05-05 14:31 | 45.02225 | -49.91091 | 37222 ft | 562 kts | 71° |
| 2026-05-05 14:31 | 45.04842 | -49.80656 | 37225 ft | 563 kts | 71° |
| 2026-05-05 14:32 | 45.07428 | -49.70279 | 37226 ft | 563 kts | 71° |
| 2026-05-05 14:32 | 45.10031 | -49.59832 | 37237 ft | 563 kts | 71° |
| 2026-05-05 14:33 | 45.12625 | -49.49380 | 37194 ft | 563 kts | 71° |
| 2026-05-05 14:33 | 45.15209 | -49.38906 | 37205 ft | 564 kts | 71° |
| 2026-05-05 14:34 | 45.17783 | -49.28402 | 37235 ft | 565 kts | 72° |
| 2026-05-05 14:34 | 45.20351 | -49.17867 | 37233 ft | 565 kts | 72° |
| 2026-05-05 14:35 | 45.22910 | -49.07318 | 37230 ft | 566 kts | 72° |
| 2026-05-05 14:35 | 45.25032 | -48.98534 | 37231 ft | 566 kts | 72° |
| 2026-05-05 14:36 | 45.27574 | -48.87965 | 37235 ft | 565 kts | 72° |
| 2026-05-05 14:36 | 45.30102 | -48.77407 | 37229 ft | 563 kts | 72° |
| 2026-05-05 14:37 | 45.32617 | -48.66850 | 37229 ft | 564 kts | 72° |
| 2026-05-05 14:37 | 45.35123 | -48.56283 | 37236 ft | 565 kts | 72° |
| 2026-05-05 14:38 | 45.37630 | -48.45660 | 37237 ft | 567 kts | 72° |
| 2026-05-05 14:38 | 45.40125 | -48.35036 | 37232 ft | 566 kts | 72° |
| 2026-05-05 14:39 | 45.42612 | -48.24395 | 37239 ft | 566 kts | 72° |
| 2026-05-05 14:39 | 45.45070 | -48.13829 | 37241 ft | 565 kts | 73° |
| 2026-05-05 14:40 | 45.47530 | -48.03201 | 37236 ft | 565 kts | 73° |
| 2026-05-05 14:40 | 45.49981 | -47.92560 | 37222 ft | 565 kts | 73° |
| 2026-05-05 14:41 | 45.52423 | -47.81905 | 37228 ft | 565 kts | 73° |
| 2026-05-05 14:41 | 45.54856 | -47.71241 | 37179 ft | 565 kts | 73° |
| 2026-05-05 14:42 | 45.57277 | -47.60573 | 37221 ft | 565 kts | 73° |
| 2026-05-05 14:42 | 45.59694 | -47.49871 | 37238 ft | 566 kts | 73° |
| 2026-05-05 14:43 | 45.62100 | -47.39162 | 37243 ft | 567 kts | 73° |
| 2026-05-05 14:43 | 45.64499 | -47.28434 | 37248 ft | 567 kts | 74° |
| 2026-05-05 14:44 | 45.66874 | -47.17755 | 37255 ft | 566 kts | 74° |
| 2026-05-05 14:44 | 45.69251 | -47.07017 | 37254 ft | 566 kts | 74° |
| 2026-05-05 14:45 | 45.71621 | -46.96254 | 37262 ft | 566 kts | 74° |
| 2026-05-05 14:45 | 45.73976 | -46.85505 | 37255 ft | 565 kts | 74° |
| 2026-05-05 14:46 | 45.76317 | -46.74761 | 37243 ft | 565 kts | 74° |
| 2026-05-05 14:46 | 45.78651 | -46.63998 | 37248 ft | 566 kts | 74° |
| 2026-05-05 14:47 | 45.80962 | -46.53287 | 37256 ft | 566 kts | 75° |
| 2026-05-05 14:47 | 45.83281 | -46.42482 | 37257 ft | 566 kts | 75° |
| 2026-05-05 14:48 | 45.85586 | -46.31681 | 37258 ft | 566 kts | 75° |
| 2026-05-05 14:48 | 45.87887 | -46.20847 | 37256 ft | 566 kts | 75° |
| 2026-05-05 14:49 | 45.90172 | -46.10034 | 37261 ft | 566 kts | 75° |
| 2026-05-05 14:49 | 45.92445 | -45.99215 | 37264 ft | 565 kts | 75° |
| 2026-05-05 14:50 | 45.94690 | -45.88473 | 37265 ft | 565 kts | 75° |
| 2026-05-05 14:50 | 45.96953 | -45.77589 | 37265 ft | 565 kts | 75° |
| 2026-05-05 14:51 | 45.99177 | -45.66832 | 37267 ft | 564 kts | 75° |
| 2026-05-05 14:51 | 46.01402 | -45.56015 | 37265 ft | 564 kts | 76° |
| 2026-05-05 14:52 | 46.03619 | -45.45181 | 37265 ft | 564 kts | 76° |
| 2026-05-05 14:52 | 46.05822 | -45.34354 | 37274 ft | 563 kts | 76° |
| 2026-05-05 14:53 | 46.08015 | -45.23518 | 37269 ft | 563 kts | 76° |
| 2026-05-05 14:53 | 46.10195 | -45.12682 | 37268 ft | 563 kts | 76° |
| 2026-05-05 14:54 | 46.12367 | -45.01833 | 37264 ft | 563 kts | 76° |
| 2026-05-05 14:54 | 46.14531 | -44.90958 | 37251 ft | 563 kts | 76° |
| 2026-05-05 14:55 | 46.16683 | -44.80084 | 37261 ft | 564 kts | 76° |
| 2026-05-05 14:55 | 46.18813 | -44.69267 | 37267 ft | 564 kts | 76° |
| 2026-05-05 14:56 | 46.20948 | -44.58359 | 37277 ft | 565 kts | 76° |
| 2026-05-05 14:56 | 46.23073 | -44.47441 | 37278 ft | 565 kts | 76° |
| 2026-05-05 14:57 | 46.25190 | -44.36505 | 37280 ft | 565 kts | 77° |
| 2026-05-05 14:57 | 46.27298 | -44.25553 | 37280 ft | 565 kts | 77° |
| 2026-05-05 14:58 | 46.29394 | -44.14598 | 37289 ft | 565 kts | 77° |
| 2026-05-05 14:58 | 46.31479 | -44.03640 | 37285 ft | 565 kts | 77° |
| 2026-05-05 14:59 | 46.33551 | -43.92677 | 37268 ft | 565 kts | 77° |
| 2026-05-05 14:59 | 46.35602 | -43.81772 | 37278 ft | 566 kts | 77° |
| 2026-05-05 15:00 | 46.37325 | -43.72558 | 37291 ft | 565 kts | 77° |
| 2026-05-05 15:00 | 46.39702 | -43.59777 | 37282 ft | 565 kts | 77° |
| 2026-05-05 15:01 | 46.41735 | -43.48771 | 37280 ft | 565 kts | 77° |
| 2026-05-05 15:01 | 46.43757 | -43.37759 | 37279 ft | 565 kts | 77° |
| 2026-05-05 15:02 | 46.45764 | -43.26769 | 37281 ft | 563 kts | 78° |
| 2026-05-05 15:02 | 46.47754 | -43.15802 | 37281 ft | 562 kts | 78° |
| 2026-05-05 15:03 | 46.49732 | -43.04832 | 37262 ft | 561 kts | 78° |
| 2026-05-05 15:03 | 46.51691 | -42.93901 | 37295 ft | 565 kts | 78° |
| 2026-05-05 15:04 | 46.53659 | -42.82864 | 37289 ft | 564 kts | 78° |
| 2026-05-05 15:04 | 46.55614 | -42.71826 | 37287 ft | 564 kts | 78° |
| 2026-05-05 15:05 | 46.58530 | -42.55232 | 37287 ft | 564 kts | 78° |
| 2026-05-05 15:06 | 46.60459 | -42.44173 | 37292 ft | 564 kts | 78° |
| 2026-05-05 15:06 | 46.62374 | -42.33122 | 37291 ft | 563 kts | 78° |
| 2026-05-05 15:07 | 46.64268 | -42.22125 | 37289 ft | 563 kts | 78° |
| 2026-05-05 15:07 | 46.66161 | -42.11068 | 37243 ft | 563 kts | 78° |
| 2026-05-05 15:08 | 46.68044 | -41.99976 | 37288 ft | 567 kts | 78° |
| 2026-05-05 15:08 | 46.69937 | -41.88776 | 37282 ft | 569 kts | 78° |
| 2026-05-05 15:09 | 46.71818 | -41.77580 | 37280 ft | 569 kts | 78° |
| 2026-05-05 15:09 | 46.73685 | -41.66382 | 37280 ft | 567 kts | 78° |
| 2026-05-05 15:10 | 46.75539 | -41.55197 | 37288 ft | 567 kts | 78° |
| 2026-05-05 15:10 | 46.77380 | -41.44008 | 37293 ft | 568 kts | 79° |
| 2026-05-05 15:11 | 46.79214 | -41.32798 | 37299 ft | 568 kts | 79° |
| 2026-05-05 15:11 | 46.81025 | -41.21643 | 37300 ft | 568 kts | 79° |
| 2026-05-05 15:12 | 46.82837 | -41.10408 | 37268 ft | 568 kts | 78° |
| 2026-05-05 15:12 | 46.84637 | -40.99168 | 37285 ft | 569 kts | 78° |
| 2026-05-05 15:13 | 46.86433 | -40.87891 | 37285 ft | 570 kts | 78° |
| 2026-05-05 15:13 | 46.88216 | -40.76610 | 37296 ft | 570 kts | 78° |
| 2026-05-05 15:14 | 46.89990 | -40.65315 | 37300 ft | 570 kts | 78° |
| 2026-05-05 15:14 | 46.91755 | -40.53996 | 37299 ft | 570 kts | 79° |
| 2026-05-05 15:15 | 46.93508 | -40.42682 | 37301 ft | 570 kts | 79° |
| 2026-05-05 15:15 | 46.95255 | -40.31372 | 37300 ft | 569 kts | 79° |
| 2026-05-05 15:16 | 46.96981 | -40.20141 | 37296 ft | 569 kts | 79° |
| 2026-05-05 15:16 | 46.98708 | -40.08812 | 37299 ft | 568 kts | 78° |
| 2026-05-05 15:17 | 47.00429 | -39.97540 | 37285 ft | 566 kts | 76° |
| 2026-05-05 15:17 | 47.03066 | -39.86687 | 37281 ft | 566 kts | 67° |
| 2026-05-05 15:18 | 47.05958 | -39.75961 | 37284 ft | 566 kts | 68° |
| 2026-05-05 15:18 | 47.08721 | -39.65134 | 37302 ft | 566 kts | 69° |
| 2026-05-05 15:19 | 47.11406 | -39.54364 | 37284 ft | 566 kts | 70° |
| 2026-05-05 15:19 | 47.14096 | -39.43499 | 37279 ft | 566 kts | 70° |
| 2026-05-05 15:20 | 47.16769 | -39.32632 | 37278 ft | 565 kts | 70° |
| 2026-05-05 15:20 | 47.19431 | -39.21747 | 37283 ft | 565 kts | 70° |
| 2026-05-05 15:21 | 47.22078 | -39.10872 | 37278 ft | 564 kts | 70° |
| 2026-05-05 15:21 | 47.24713 | -38.99992 | 37274 ft | 564 kts | 70° |
| 2026-05-05 15:22 | 47.26893 | -38.90947 | 37277 ft | 564 kts | 70° |
| 2026-05-05 15:22 | 47.29932 | -38.78280 | 37271 ft | 564 kts | 70° |
| 2026-05-05 15:23 | 47.32110 | -38.69153 | 37272 ft | 563 kts | 70° |
| 2026-05-05 15:23 | 47.34684 | -38.58320 | 37268 ft | 562 kts | 70° |
| 2026-05-05 15:24 | 47.37244 | -38.47493 | 37266 ft | 558 kts | 70° |
| 2026-05-05 15:24 | 47.39788 | -38.36680 | 37266 ft | 558 kts | 70° |
| 2026-05-05 15:25 | 47.42325 | -38.25845 | 37266 ft | 558 kts | 70° |
| 2026-05-05 15:25 | 47.44853 | -38.14995 | 37263 ft | 558 kts | 70° |
| 2026-05-05 15:26 | 47.47369 | -38.04136 | 37262 ft | 557 kts | 70° |
| 2026-05-05 15:26 | 47.49852 | -37.93368 | 37259 ft | 557 kts | 70° |
| 2026-05-05 15:27 | 47.52341 | -37.82521 | 37257 ft | 556 kts | 70° |
| 2026-05-05 15:27 | 47.54817 | -37.71676 | 37260 ft | 556 kts | 70° |
| 2026-05-05 15:28 | 47.57284 | -37.60817 | 37255 ft | 556 kts | 70° |
| 2026-05-05 15:28 | 47.59738 | -37.49956 | 37251 ft | 556 kts | 71° |
| 2026-05-05 15:29 | 47.62184 | -37.39078 | 37249 ft | 556 kts | 71° |
| 2026-05-05 15:29 | 47.64617 | -37.28197 | 37260 ft | 555 kts | 71° |
| 2026-05-05 15:30 | 47.67035 | -37.17332 | 37253 ft | 555 kts | 71° |
| 2026-05-05 15:30 | 47.69427 | -37.06527 | 37251 ft | 554 kts | 71° |
| 2026-05-05 15:31 | 47.71824 | -36.95646 | 37248 ft | 554 kts | 71° |
| 2026-05-05 15:31 | 47.74195 | -36.84823 | 37254 ft | 549 kts | 71° |
| 2026-05-05 15:32 | 47.76552 | -36.74008 | 37247 ft | 551 kts | 71° |
| 2026-05-05 15:32 | 47.78902 | -36.63172 | 37250 ft | 550 kts | 71° |
| 2026-05-05 15:33 | 47.81241 | -36.52325 | 37246 ft | 550 kts | 71° |
| 2026-05-05 15:33 | 47.83568 | -36.41481 | 37244 ft | 550 kts | 71° |
| 2026-05-05 15:34 | 47.85888 | -36.30608 | 37243 ft | 550 kts | 71° |
| 2026-05-05 15:34 | 47.88194 | -36.19742 | 37246 ft | 550 kts | 71° |
| 2026-05-05 15:35 | 47.90476 | -36.08931 | 37240 ft | 550 kts | 71° |
| 2026-05-05 15:35 | 47.92767 | -35.98027 | 37238 ft | 550 kts | 71° |
| 2026-05-05 15:36 | 47.95043 | -35.87136 | 37240 ft | 550 kts | 71° |
| 2026-05-05 15:36 | 47.97310 | -35.76226 | 37238 ft | 550 kts | 71° |
| 2026-05-05 15:37 | 47.99567 | -35.65296 | 37250 ft | 550 kts | 71° |
| 2026-05-05 15:37 | 48.01812 | -35.54378 | 37249 ft | 550 kts | 71° |
| 2026-05-05 15:38 | 48.04033 | -35.43511 | 37243 ft | 550 kts | 71° |
| 2026-05-05 15:38 | 48.06255 | -35.32576 | 37240 ft | 550 kts | 71° |
| 2026-05-05 15:39 | 48.08464 | -35.21646 | 37219 ft | 550 kts | 71° |
| 2026-05-05 15:39 | 48.10663 | -35.10710 | 37230 ft | 547 kts | 71° |
| 2026-05-05 15:40 | 48.12843 | -34.99802 | 37229 ft | 547 kts | 71° |
| 2026-05-05 15:40 | 48.15012 | -34.88892 | 37232 ft | 546 kts | 71° |
| 2026-05-05 15:41 | 48.17169 | -34.77978 | 37227 ft | 547 kts | 71° |
| 2026-05-05 15:41 | 48.19318 | -34.67047 | 37233 ft | 547 kts | 71° |
| 2026-05-05 15:42 | 48.21457 | -34.56103 | 37230 ft | 547 kts | 71° |
| 2026-05-05 15:42 | 48.23582 | -34.45166 | 37238 ft | 546 kts | 71° |
| 2026-05-05 15:43 | 48.25697 | -34.34218 | 37236 ft | 546 kts | 71° |
| 2026-05-05 15:43 | 48.27800 | -34.23273 | 37233 ft | 545 kts | 71° |
| 2026-05-05 15:44 | 48.29878 | -34.12391 | 37238 ft | 545 kts | 71° |
| 2026-05-05 15:44 | 48.31958 | -34.01436 | 37235 ft | 545 kts | 71° |
| 2026-05-05 15:45 | 48.34027 | -33.90480 | 37223 ft | 544 kts | 71° |
| 2026-05-05 15:45 | 48.36084 | -33.79520 | 37227 ft | 544 kts | 71° |
| 2026-05-05 15:46 | 48.38128 | -33.68564 | 37240 ft | 544 kts | 71° |
| 2026-05-05 15:46 | 48.40167 | -33.57578 | 37251 ft | 544 kts | 71° |
| 2026-05-05 15:47 | 48.42177 | -33.46675 | 37248 ft | 544 kts | 71° |
| 2026-05-05 15:47 | 48.44193 | -33.35673 | 37236 ft | 544 kts | 72° |
| 2026-05-05 15:48 | 48.46196 | -33.24680 | 37239 ft | 544 kts | 71° |
| 2026-05-05 15:48 | 48.48192 | -33.13663 | 37239 ft | 544 kts | 72° |
| 2026-05-05 15:49 | 48.50176 | -33.02642 | 37247 ft | 544 kts | 72° |
| 2026-05-05 15:49 | 48.52149 | -32.91615 | 37247 ft | 544 kts | 72° |
| 2026-05-05 15:50 | 48.54110 | -32.80583 | 37259 ft | 544 kts | 72° |
| 2026-05-05 15:50 | 48.56060 | -32.69551 | 37262 ft | 544 kts | 72° |
| 2026-05-05 15:51 | 48.58003 | -32.58495 | 37268 ft | 545 kts | 72° |
| 2026-05-05 15:51 | 48.59917 | -32.47524 | 37261 ft | 543 kts | 72° |
| 2026-05-05 15:52 | 48.61832 | -32.36487 | 37265 ft | 542 kts | 72° |
| 2026-05-05 15:52 | 48.63735 | -32.25450 | 37266 ft | 543 kts | 72° |
| 2026-05-05 15:53 | 48.65631 | -32.14385 | 37275 ft | 543 kts | 72° |
| 2026-05-05 15:53 | 48.67515 | -32.03314 | 37281 ft | 542 kts | 72° |
| 2026-05-05 15:54 | 48.69371 | -31.92329 | 37274 ft | 538 kts | 72° |
| 2026-05-05 15:54 | 48.71221 | -31.81330 | 37276 ft | 539 kts | 72° |
| 2026-05-05 15:55 | 48.73064 | -31.70295 | 37276 ft | 540 kts | 72° |
| 2026-05-05 15:55 | 48.74889 | -31.59285 | 37281 ft | 537 kts | 72° |
| 2026-05-05 15:56 | 48.76676 | -31.48433 | 37288 ft | 534 kts | 72° |
| 2026-05-05 15:56 | 48.78474 | -31.37473 | 37288 ft | 535 kts | 72° |
| 2026-05-05 15:57 | 48.80258 | -31.26509 | 37291 ft | 535 kts | 72° |
| 2026-05-05 15:57 | 48.82030 | -31.15547 | 37293 ft | 532 kts | 72° |
| 2026-05-05 15:58 | 48.83773 | -31.04685 | 37293 ft | 531 kts | 72° |
| 2026-05-05 15:58 | 48.85514 | -30.93783 | 37300 ft | 531 kts | 72° |
| 2026-05-05 15:59 | 48.87245 | -30.82863 | 37303 ft | 531 kts | 72° |
| 2026-05-05 15:59 | 48.88962 | -30.71958 | 37309 ft | 526 kts | 72° |
| 2026-05-05 16:00 | 48.90637 | -30.61237 | 37304 ft | 526 kts | 72° |
| 2026-05-05 16:00 | 48.92323 | -30.50393 | 37309 ft | 527 kts | 73° |
| 2026-05-05 16:01 | 48.94000 | -30.39543 | 37314 ft | 527 kts | 73° |
| 2026-05-05 16:01 | 48.95669 | -30.28717 | 37311 ft | 522 kts | 73° |
| 2026-05-05 16:02 | 48.97316 | -30.17975 | 37315 ft | 523 kts | 73° |
| 2026-05-05 16:02 | 48.98960 | -30.07175 | 37317 ft | 523 kts | 73° |
| 2026-05-05 16:03 | 49.00645 | -29.96391 | 37310 ft | 520 kts | 68° |
| 2026-05-05 16:03 | 49.03239 | -29.86190 | 37321 ft | 514 kts | 63° |
| 2026-05-05 16:04 | 49.05950 | -29.76100 | 37324 ft | 515 kts | 64° |
| 2026-05-05 16:04 | 49.08532 | -29.65964 | 37327 ft | 516 kts | 64° |
| 2026-05-05 16:05 | 49.11085 | -29.55728 | 37324 ft | 516 kts | 65° |
| 2026-05-05 16:05 | 49.13624 | -29.45487 | 37330 ft | 513 kts | 65° |
| 2026-05-05 16:06 | 49.16135 | -29.35305 | 37332 ft | 511 kts | 65° |
| 2026-05-05 16:06 | 49.18646 | -29.25069 | 37329 ft | 516 kts | 65° |
| 2026-05-05 16:07 | 49.21137 | -29.14852 | 37330 ft | 515 kts | 65° |
| 2026-05-05 16:07 | 49.23612 | -29.04650 | 37331 ft | 507 kts | 65° |
| 2026-05-05 16:08 | 49.26068 | -28.94494 | 37334 ft | 510 kts | 65° |
| 2026-05-05 16:08 | 49.28521 | -28.84300 | 37336 ft | 510 kts | 65° |
| 2026-05-05 16:09 | 49.30967 | -28.74084 | 37337 ft | 510 kts | 65° |
| 2026-05-05 16:09 | 49.33369 | -28.63992 | 37324 ft | 499 kts | 65° |
| 2026-05-05 16:10 | 49.35735 | -28.54028 | 37339 ft | 502 kts | 65° |
| 2026-05-05 16:10 | 49.38116 | -28.43950 | 37348 ft | 501 kts | 66° |
| 2026-05-05 16:11 | 49.40088 | -28.35562 | 37328 ft | 502 kts | 66° |
| 2026-05-05 16:12 | 49.44806 | -28.15364 | 37348 ft | 501 kts | 66° |
| 2026-05-05 16:13 | 49.50644 | -27.90102 | 37335 ft | 500 kts | 66° |
| 2026-05-05 16:13 | 49.52946 | -27.80049 | 37339 ft | 498 kts | 66° |
| 2026-05-05 16:14 | 49.57522 | -27.59951 | 37343 ft | 499 kts | 66° |
| 2026-05-05 16:15 | 49.62070 | -27.39770 | 37334 ft | 497 kts | 66° |
| 2026-05-05 16:16 | 49.66566 | -27.19635 | 37322 ft | 496 kts | 66° |
| 2026-05-05 16:17 | 49.69913 | -27.04516 | 37343 ft | 498 kts | 66° |
| 2026-05-05 16:18 | 49.73257 | -26.89302 | 37344 ft | 498 kts | 66° |
| 2026-05-05 16:19 | 49.76581 | -26.74066 | 37339 ft | 498 kts | 66° |
| 2026-05-05 16:19 | 49.79864 | -26.58893 | 37337 ft | 495 kts | 66° |
| 2026-05-05 16:20 | 49.84201 | -26.38704 | 37336 ft | 497 kts | 66° |
| 2026-05-05 16:22 | 49.89591 | -26.13311 | 37340 ft | 496 kts | 66° |
| 2026-05-05 16:23 | 49.93864 | -25.92961 | 37333 ft | 496 kts | 66° |
| 2026-05-05 16:23 | 49.97048 | -25.77658 | 37329 ft | 496 kts | 66° |
| 2026-05-05 16:24 | 49.99147 | -25.67508 | 37331 ft | 496 kts | 66° |
| 2026-05-05 16:25 | 50.02296 | -25.52183 | 37331 ft | 496 kts | 67° |
| 2026-05-05 16:25 | 50.05425 | -25.36835 | 37330 ft | 496 kts | 67° |
| 2026-05-05 16:26 | 50.09562 | -25.16356 | 37327 ft | 495 kts | 67° |
| 2026-05-05 16:27 | 50.11616 | -25.06109 | 37326 ft | 496 kts | 67° |
| 2026-05-05 16:27 | 50.13651 | -24.95910 | 37335 ft | 496 kts | 68° |
| 2026-05-05 16:28 | 50.15687 | -24.85642 | 37331 ft | 496 kts | 68° |
| 2026-05-05 16:28 | 50.17715 | -24.75361 | 37328 ft | 495 kts | 68° |
| 2026-05-05 16:29 | 50.19732 | -24.65081 | 37326 ft | 495 kts | 68° |
| 2026-05-05 16:29 | 50.21747 | -24.54770 | 37328 ft | 496 kts | 68° |
| 2026-05-05 16:30 | 50.23745 | -24.44477 | 37335 ft | 495 kts | 68° |
| 2026-05-05 16:30 | 50.25733 | -24.34181 | 37335 ft | 495 kts | 68° |
| 2026-05-05 16:31 | 50.27713 | -24.23869 | 37329 ft | 495 kts | 69° |
| 2026-05-05 16:31 | 50.29670 | -24.13629 | 37327 ft | 495 kts | 69° |
| 2026-05-05 16:32 | 50.31633 | -24.03297 | 37330 ft | 495 kts | 69° |
| 2026-05-05 16:32 | 50.33584 | -23.92971 | 37325 ft | 495 kts | 69° |
| 2026-05-05 16:33 | 50.35529 | -23.82620 | 37324 ft | 495 kts | 69° |
| 2026-05-05 16:33 | 50.37463 | -23.72276 | 37368 ft | 495 kts | 69° |
| 2026-05-05 16:34 | 50.39393 | -23.61896 | 37337 ft | 495 kts | 69° |
| 2026-05-05 16:34 | 50.41295 | -23.51600 | 37331 ft | 494 kts | 69° |
| 2026-05-05 16:35 | 50.43198 | -23.41247 | 37327 ft | 494 kts | 70° |
| 2026-05-05 16:35 | 50.45089 | -23.30894 | 37321 ft | 494 kts | 70° |
| 2026-05-05 16:36 | 50.46974 | -23.20526 | 37336 ft | 493 kts | 70° |
| 2026-05-05 16:36 | 50.48848 | -23.10153 | 37329 ft | 493 kts | 70° |
| 2026-05-05 16:37 | 50.50708 | -22.99794 | 37315 ft | 493 kts | 70° |
| 2026-05-05 16:37 | 50.52559 | -22.89432 | 37324 ft | 493 kts | 70° |
| 2026-05-05 16:38 | 50.54401 | -22.79062 | 37317 ft | 492 kts | 71° |
| 2026-05-05 16:38 | 50.56232 | -22.68690 | 37309 ft | 492 kts | 71° |
| 2026-05-05 16:39 | 50.58055 | -22.58307 | 37310 ft | 492 kts | 71° |
| 2026-05-05 16:39 | 50.59855 | -22.47987 | 37310 ft | 492 kts | 71° |
| 2026-05-05 16:40 | 50.61660 | -22.37594 | 37317 ft | 492 kts | 71° |
| 2026-05-05 16:40 | 50.63453 | -22.27194 | 37311 ft | 492 kts | 71° |
| 2026-05-05 16:41 | 50.65236 | -22.16789 | 37310 ft | 492 kts | 71° |
| 2026-05-05 16:41 | 50.67010 | -22.06378 | 37306 ft | 492 kts | 71° |
| 2026-05-05 16:42 | 50.68777 | -21.95953 | 37316 ft | 492 kts | 72° |
| 2026-05-05 16:42 | 50.70535 | -21.85515 | 37309 ft | 491 kts | 72° |
| 2026-05-05 16:43 | 50.72267 | -21.75156 | 37304 ft | 491 kts | 72° |
| 2026-05-05 16:43 | 50.74002 | -21.64727 | 37303 ft | 491 kts | 72° |
| 2026-05-05 16:44 | 50.75727 | -21.54291 | 37315 ft | 491 kts | 72° |
| 2026-05-05 16:44 | 50.77446 | -21.43842 | 37300 ft | 491 kts | 73° |
| 2026-05-05 16:45 | 50.79151 | -21.33393 | 37297 ft | 491 kts | 73° |
| 2026-05-05 16:45 | 50.80847 | -21.22938 | 37288 ft | 491 kts | 73° |
| 2026-05-05 16:46 | 50.82535 | -21.12472 | 37293 ft | 491 kts | 73° |
| 2026-05-05 16:46 | 50.84216 | -21.01990 | 37294 ft | 492 kts | 73° |
| 2026-05-05 16:47 | 50.85889 | -20.91486 | 37294 ft | 492 kts | 73° |
| 2026-05-05 16:47 | 50.87550 | -20.80982 | 37294 ft | 492 kts | 73° |
| 2026-05-05 16:48 | 50.89203 | -20.70474 | 37290 ft | 492 kts | 73° |
| 2026-05-05 16:48 | 50.90837 | -20.60022 | 37292 ft | 492 kts | 74° |
| 2026-05-05 16:49 | 50.92473 | -20.49477 | 37288 ft | 492 kts | 74° |
| 2026-05-05 16:49 | 50.94103 | -20.38926 | 37288 ft | 492 kts | 74° |
| 2026-05-05 16:50 | 50.95729 | -20.28372 | 37285 ft | 492 kts | 74° |
| 2026-05-05 16:50 | 50.97347 | -20.17808 | 37287 ft | 492 kts | 75° |
| 2026-05-05 16:51 | 50.98941 | -20.07317 | 37282 ft | 492 kts | 75° |
| 2026-05-05 16:51 | 51.00026 | -19.96572 | 37276 ft | 494 kts | 83° |
| 2026-05-05 16:52 | 51.00269 | -19.85658 | 37279 ft | 494 kts | 87° |
| 2026-05-05 16:52 | 51.00493 | -19.74749 | 37275 ft | 494 kts | 86° |
| 2026-05-05 16:53 | 51.00719 | -19.63832 | 37276 ft | 495 kts | 87° |
| 2026-05-05 16:53 | 51.00918 | -19.52969 | 37277 ft | 495 kts | 87° |
| 2026-05-05 16:54 | 51.01104 | -19.41973 | 37275 ft | 495 kts | 87° |
| 2026-05-05 16:54 | 51.01276 | -19.31130 | 37275 ft | 495 kts | 87° |
| 2026-05-05 16:55 | 51.01440 | -19.20209 | 37268 ft | 495 kts | 87° |
| 2026-05-05 16:55 | 51.01594 | -19.09270 | 37274 ft | 495 kts | 88° |
| 2026-05-05 16:56 | 51.01737 | -18.98350 | 37271 ft | 495 kts | 88° |
| 2026-05-05 16:56 | 51.01870 | -18.87426 | 37271 ft | 495 kts | 88° |
| 2026-05-05 16:57 | 51.01993 | -18.76498 | 37268 ft | 495 kts | 88° |
| 2026-05-05 16:57 | 51.02106 | -18.65570 | 37272 ft | 494 kts | 88° |
| 2026-05-05 16:58 | 51.02191 | -18.56509 | 37273 ft | 494 kts | 88° |
| 2026-05-05 16:58 | 51.02284 | -18.45603 | 37268 ft | 493 kts | 88° |
| 2026-05-05 16:59 | 51.02368 | -18.34709 | 37264 ft | 493 kts | 88° |
| 2026-05-05 16:59 | 51.02442 | -18.23800 | 37261 ft | 493 kts | 88° |
| 2026-05-05 17:00 | 51.02505 | -18.12973 | 37261 ft | 493 kts | 88° |
| 2026-05-05 17:00 | 51.02558 | -18.02084 | 37253 ft | 493 kts | 88° |
| 2026-05-05 17:01 | 51.02601 | -17.91189 | 37256 ft | 492 kts | 88° |
| 2026-05-05 17:01 | 51.02634 | -17.80314 | 37247 ft | 492 kts | 89° |
| 2026-05-05 17:02 | 51.02658 | -17.69435 | 37255 ft | 492 kts | 89° |
| 2026-05-05 17:02 | 51.02670 | -17.58549 | 37249 ft | 492 kts | 89° |
| 2026-05-05 17:03 | 51.02673 | -17.47763 | 37248 ft | 492 kts | 89° |
| 2026-05-05 17:03 | 51.02666 | -17.36880 | 37326 ft | 493 kts | 89° |
| 2026-05-05 17:04 | 51.02658 | -17.31441 | 37455 ft | 493 kts | 89° |
| 2026-05-05 17:04 | 51.02648 | -17.25997 | 37576 ft | 493 kts | 89° |
| 2026-05-05 17:04 | 51.02636 | -17.20546 | 37685 ft | 493 kts | 89° |
| 2026-05-05 17:04 | 51.02621 | -17.15094 | 37804 ft | 493 kts | 89° |
| 2026-05-05 17:05 | 51.02603 | -17.09651 | 37925 ft | 493 kts | 89° |
| 2026-05-05 17:05 | 51.02583 | -17.04199 | 38043 ft | 493 kts | 89° |
| 2026-05-05 17:05 | 51.02560 | -16.98758 | 38162 ft | 493 kts | 89° |
| 2026-05-05 17:05 | 51.02535 | -16.93319 | 38272 ft | 493 kts | 89° |
| 2026-05-05 17:06 | 51.02507 | -16.87870 | 38383 ft | 493 kts | 89° |
| 2026-05-05 17:06 | 51.02477 | -16.82427 | 38493 ft | 493 kts | 89° |
| 2026-05-05 17:06 | 51.02444 | -16.76982 | 38597 ft | 493 kts | 89° |
| 2026-05-05 17:06 | 51.02409 | -16.71536 | 38742 ft | 492 kts | 89° |
| 2026-05-05 17:07 | 51.02370 | -16.66097 | 38846 ft | 492 kts | 89° |
| 2026-05-05 17:07 | 51.02329 | -16.60665 | 38939 ft | 492 kts | 89° |
| 2026-05-05 17:07 | 51.02239 | -16.49850 | 39097 ft | 492 kts | 89° |
| 2026-05-05 17:08 | 51.02141 | -16.38974 | 39219 ft | 493 kts | 89° |
| 2026-05-05 17:08 | 51.02033 | -16.28102 | 39222 ft | 492 kts | 89° |
| 2026-05-05 17:09 | 51.01915 | -16.17242 | 39219 ft | 491 kts | 90° |
| 2026-05-05 17:09 | 51.01787 | -16.06387 | 39217 ft | 492 kts | 90° |
| 2026-05-05 17:10 | 51.01650 | -15.95596 | 39214 ft | 492 kts | 90° |
| 2026-05-05 17:10 | 51.01502 | -15.84741 | 39214 ft | 492 kts | 90° |
| 2026-05-05 17:11 | 51.01344 | -15.73881 | 39220 ft | 492 kts | 90° |
| 2026-05-05 17:11 | 51.01176 | -15.63030 | 39211 ft | 491 kts | 90° |
| 2026-05-05 17:12 | 51.00998 | -15.52191 | 39210 ft | 491 kts | 90° |
| 2026-05-05 17:12 | 51.00810 | -15.41359 | 39205 ft | 491 kts | 90° |
| 2026-05-05 17:13 | 51.00612 | -15.30535 | 39204 ft | 490 kts | 90° |
| 2026-05-05 17:13 | 51.00405 | -15.19706 | 39203 ft | 490 kts | 90° |
| 2026-05-05 17:14 | 51.00193 | -15.08879 | 39201 ft | 490 kts | 90° |
| 2026-05-05 17:14 | 50.99977 | -14.98047 | 39199 ft | 490 kts | 90° |
| 2026-05-05 17:15 | 50.99992 | -14.87293 | 39191 ft | 489 kts | 88° |
| 2026-05-05 17:15 | 51.00068 | -14.76478 | 39191 ft | 489 kts | 88° |
| 2026-05-05 17:16 | 51.00100 | -14.65668 | 39189 ft | 490 kts | 88° |
| 2026-05-05 17:16 | 51.00110 | -14.54848 | 39189 ft | 490 kts | 89° |
| 2026-05-05 17:17 | 51.00108 | -14.44041 | 39182 ft | 490 kts | 89° |
| 2026-05-05 17:17 | 51.00098 | -14.33225 | 39181 ft | 490 kts | 89° |
| 2026-05-05 17:18 | 51.00077 | -14.22420 | 39187 ft | 490 kts | 89° |
| 2026-05-05 17:18 | 51.00047 | -14.11683 | 39186 ft | 489 kts | 89° |
| 2026-05-05 17:19 | 50.99334 | -14.00942 | 39179 ft | 491 kts | 102° |
| 2026-05-05 17:19 | 50.97236 | -13.90626 | 39168 ft | 492 kts | 114° |
| 2026-05-05 17:20 | 50.94299 | -13.80825 | 39168 ft | 492 kts | 115° |
| 2026-05-05 17:20 | 50.91386 | -13.71006 | 39180 ft | 492 kts | 115° |
| 2026-05-05 17:21 | 50.88468 | -13.61197 | 39176 ft | 492 kts | 115° |
| 2026-05-05 17:22 | 50.84080 | -13.46570 | 39175 ft | 492 kts | 115° |
| 2026-05-05 17:22 | 50.81130 | -13.36798 | 39169 ft | 491 kts | 115° |
| 2026-05-05 17:23 | 50.78176 | -13.27053 | 39173 ft | 491 kts | 115° |
| 2026-05-05 17:23 | 50.75214 | -13.17317 | 39170 ft | 491 kts | 115° |
| 2026-05-05 17:24 | 50.72244 | -13.07594 | 39168 ft | 491 kts | 115° |
| 2026-05-05 17:24 | 50.69287 | -12.97954 | 39162 ft | 491 kts | 115° |
| 2026-05-05 17:25 | 50.66303 | -12.88266 | 39161 ft | 491 kts | 115° |
| 2026-05-05 17:25 | 50.63314 | -12.78597 | 39161 ft | 491 kts | 116° |
| 2026-05-05 17:26 | 50.60316 | -12.68939 | 39159 ft | 490 kts | 116° |
| 2026-05-05 17:26 | 50.57314 | -12.59303 | 39161 ft | 490 kts | 116° |
| 2026-05-05 17:27 | 50.54306 | -12.49686 | 39151 ft | 490 kts | 116° |
| 2026-05-05 17:27 | 50.51290 | -12.40083 | 39151 ft | 490 kts | 116° |
| 2026-05-05 17:28 | 50.48268 | -12.30498 | 39151 ft | 489 kts | 116° |
| 2026-05-05 17:28 | 50.45258 | -12.20986 | 39149 ft | 489 kts | 116° |
| 2026-05-05 17:29 | 50.42223 | -12.11435 | 39146 ft | 489 kts | 116° |
| 2026-05-05 17:29 | 50.39178 | -12.01886 | 39141 ft | 489 kts | 116° |
| 2026-05-05 17:30 | 50.36130 | -11.92366 | 39139 ft | 489 kts | 116° |
| 2026-05-05 17:30 | 50.33070 | -11.82846 | 39134 ft | 489 kts | 116° |
| 2026-05-05 17:31 | 50.30006 | -11.73349 | 39136 ft | 489 kts | 116° |
| 2026-05-05 17:31 | 50.26950 | -11.63913 | 39135 ft | 488 kts | 117° |
| 2026-05-05 17:32 | 50.23871 | -11.54441 | 39140 ft | 488 kts | 117° |
| 2026-05-05 17:32 | 50.20792 | -11.45005 | 39135 ft | 488 kts | 117° |
| 2026-05-05 17:33 | 50.17705 | -11.35579 | 39129 ft | 487 kts | 117° |
| 2026-05-05 17:33 | 50.14614 | -11.26179 | 39126 ft | 487 kts | 117° |
| 2026-05-05 17:34 | 50.11515 | -11.16790 | 39119 ft | 487 kts | 117° |
| 2026-05-05 17:34 | 50.08413 | -11.07423 | 39117 ft | 486 kts | 117° |
| 2026-05-05 17:35 | 50.05302 | -10.98068 | 39118 ft | 487 kts | 117° |
| 2026-05-05 17:35 | 50.02203 | -10.88780 | 39119 ft | 486 kts | 117° |
| 2026-05-05 17:36 | 49.99080 | -10.79457 | 39110 ft | 486 kts | 117° |
| 2026-05-05 17:36 | 49.95947 | -10.70135 | 39110 ft | 486 kts | 117° |
| 2026-05-05 17:37 | 49.92806 | -10.60830 | 39108 ft | 486 kts | 117° |
| 2026-05-05 17:37 | 49.89660 | -10.51539 | 39106 ft | 486 kts | 117° |
| 2026-05-05 17:38 | 49.86508 | -10.42264 | 39117 ft | 485 kts | 117° |
| 2026-05-05 17:38 | 49.83370 | -10.33066 | 39105 ft | 485 kts | 118° |
| 2026-05-05 17:39 | 49.80212 | -10.23842 | 39106 ft | 485 kts | 118° |
| 2026-05-05 17:39 | 49.77042 | -10.14618 | 39100 ft | 485 kts | 118° |
| 2026-05-05 17:40 | 49.73866 | -10.05408 | 39104 ft | 484 kts | 118° |
| 2026-05-05 17:40 | 49.70687 | -9.96222 | 39099 ft | 484 kts | 118° |
| 2026-05-05 17:41 | 49.67523 | -9.87115 | 39102 ft | 484 kts | 118° |
| 2026-05-05 17:41 | 49.64330 | -9.77955 | 39102 ft | 484 kts | 118° |
| 2026-05-05 17:42 | 49.61134 | -9.68819 | 39097 ft | 484 kts | 118° |
| 2026-05-05 17:42 | 49.57932 | -9.59697 | 39098 ft | 483 kts | 118° |
| 2026-05-05 17:43 | 49.54723 | -9.50593 | 39094 ft | 483 kts | 118° |
| 2026-05-05 17:43 | 49.51504 | -9.41487 | 39083 ft | 484 kts | 118° |
| 2026-05-05 17:44 | 49.48278 | -9.32394 | 39089 ft | 484 kts | 118° |
| 2026-05-05 17:44 | 49.45065 | -9.23369 | 39091 ft | 484 kts | 118° |
| 2026-05-05 17:45 | 49.41824 | -9.14302 | 39094 ft | 484 kts | 118° |
| 2026-05-05 17:45 | 49.38573 | -9.05235 | 39091 ft | 484 kts | 118° |
| 2026-05-05 17:46 | 49.35314 | -8.96180 | 39081 ft | 485 kts | 118° |
| 2026-05-05 17:46 | 49.32048 | -8.87134 | 39089 ft | 484 kts | 118° |
| 2026-05-05 17:47 | 49.29325 | -8.79616 | 39085 ft | 484 kts | 118° |
| 2026-05-05 17:47 | 49.25517 | -8.69140 | 39080 ft | 484 kts | 118° |
| 2026-05-05 17:48 | 49.22230 | -8.60132 | 39079 ft | 484 kts | 118° |
| 2026-05-05 17:48 | 49.19474 | -8.52604 | 39073 ft | 484 kts | 118° |
| 2026-05-05 17:49 | 49.16199 | -8.43685 | 39074 ft | 484 kts | 118° |
| 2026-05-05 17:49 | 49.12898 | -8.34726 | 39078 ft | 484 kts | 118° |
| 2026-05-05 17:50 | 49.09592 | -8.25783 | 39070 ft | 484 kts | 118° |
| 2026-05-05 17:50 | 49.06279 | -8.16842 | 39074 ft | 483 kts | 118° |
| 2026-05-05 17:51 | 49.02982 | -8.07908 | 39065 ft | 483 kts | 116° |
| 2026-05-05 17:51 | 49.00688 | -7.98368 | 39061 ft | 479 kts | 100° |
| 2026-05-05 17:52 | 49.00088 | -7.88322 | 39063 ft | 475 kts | 86° |
| 2026-05-05 17:52 | 49.00249 | -7.78338 | 39063 ft | 475 kts | 87° |
| 2026-05-05 17:53 | 49.00364 | -7.68275 | 39062 ft | 475 kts | 88° |
| 2026-05-05 17:53 | 49.00428 | -7.58210 | 39060 ft | 475 kts | 90° |
| 2026-05-05 17:54 | 48.99694 | -7.48158 | 39067 ft | 478 kts | 100° |
| 2026-05-05 17:54 | 48.97902 | -7.38405 | 39042 ft | 480 kts | 108° |
| 2026-05-05 17:55 | 48.95660 | -7.28838 | 39065 ft | 479 kts | 108° |
| 2026-05-05 17:55 | 48.93447 | -7.19276 | 39038 ft | 480 kts | 108° |
| 2026-05-05 17:56 | 48.91219 | -7.09720 | 39034 ft | 480 kts | 108° |
| 2026-05-05 17:56 | 48.88990 | -7.00224 | 39044 ft | 480 kts | 108° |
| 2026-05-05 17:57 | 48.86748 | -6.90711 | 39038 ft | 478 kts | 108° |
| 2026-05-05 17:57 | 48.84487 | -6.81168 | 39033 ft | 480 kts | 108° |
| 2026-05-05 17:58 | 48.82227 | -6.71668 | 39026 ft | 479 kts | 108° |
| 2026-05-05 17:58 | 48.79956 | -6.62157 | 39034 ft | 479 kts | 108° |
| 2026-05-05 17:59 | 48.77679 | -6.52667 | 39028 ft | 480 kts | 108° |
| 2026-05-05 17:59 | 48.75413 | -6.43253 | 39034 ft | 477 kts | 109° |
| 2026-05-05 18:00 | 48.73121 | -6.33790 | 39024 ft | 480 kts | 109° |
| 2026-05-05 18:00 | 48.70822 | -6.24322 | 39021 ft | 477 kts | 108° |
| 2026-05-05 18:01 | 48.68516 | -6.14875 | 39027 ft | 479 kts | 109° |
| 2026-05-05 18:01 | 48.66205 | -6.05443 | 39020 ft | 477 kts | 109° |
| 2026-05-05 18:02 | 48.63885 | -5.96020 | 39013 ft | 478 kts | 109° |
| 2026-05-05 18:02 | 48.61577 | -5.86678 | 39010 ft | 477 kts | 109° |
| 2026-05-05 18:03 | 48.59239 | -5.77262 | 39001 ft | 478 kts | 110° |
| 2026-05-05 18:03 | 48.56898 | -5.67872 | 39005 ft | 478 kts | 109° |
| 2026-05-05 18:04 | 48.54544 | -5.58461 | 39004 ft | 477 kts | 110° |
| 2026-05-05 18:04 | 48.52195 | -5.49119 | 38997 ft | 478 kts | 110° |
| 2026-05-05 18:05 | 48.49842 | -5.39792 | 38994 ft | 477 kts | 110° |
| 2026-05-05 18:05 | 48.47467 | -5.30426 | 38988 ft | 479 kts | 110° |
| 2026-05-05 18:06 | 48.45085 | -5.21061 | 38996 ft | 477 kts | 110° |
| 2026-05-05 18:06 | 48.42699 | -5.11724 | 38991 ft | 478 kts | 110° |
| 2026-05-05 18:07 | 48.40306 | -5.02395 | 38988 ft | 477 kts | 110° |
| 2026-05-05 18:07 | 48.37921 | -4.93139 | 38988 ft | 478 kts | 110° |
| 2026-05-05 18:08 | 48.35517 | -4.83847 | 38979 ft | 476 kts | 111° |
| 2026-05-05 18:08 | 48.33110 | -4.74581 | 38967 ft | 475 kts | 111° |
| 2026-05-05 18:09 | 48.30701 | -4.65342 | 38974 ft | 475 kts | 111° |
| 2026-05-05 18:09 | 48.28279 | -4.56087 | 38995 ft | 478 kts | 111° |
| 2026-05-05 18:10 | 48.25838 | -4.46802 | 38995 ft | 478 kts | 111° |
| 2026-05-05 18:10 | 48.23390 | -4.37525 | 38993 ft | 477 kts | 111° |
| 2026-05-05 18:11 | 48.20938 | -4.28273 | 38995 ft | 478 kts | 111° |
| 2026-05-05 18:11 | 48.18516 | -4.19165 | 38991 ft | 475 kts | 111° |
| 2026-05-05 18:12 | 48.16046 | -4.09919 | 38954 ft | 474 kts | 111° |
| 2026-05-05 18:12 | 48.13589 | -4.00757 | 38963 ft | 475 kts | 111° |
| 2026-05-05 18:13 | 48.11110 | -3.91548 | 38970 ft | 478 kts | 111° |
| 2026-05-05 18:13 | 48.08622 | -3.82340 | 38975 ft | 476 kts | 112° |
| 2026-05-05 18:14 | 48.06130 | -3.73148 | 38970 ft | 478 kts | 112° |
| 2026-05-05 18:14 | 48.03630 | -3.63951 | 38967 ft | 476 kts | 112° |
| 2026-05-05 18:15 | 48.00925 | -3.54913 | 38954 ft | 477 kts | 114° |
| 2026-05-05 18:15 | 47.98196 | -3.45885 | 38961 ft | 477 kts | 114° |
| 2026-05-05 18:16 | 47.95478 | -3.36917 | 38948 ft | 477 kts | 115° |
| 2026-05-05 18:16 | 47.92719 | -3.27888 | 38954 ft | 478 kts | 115° |
| 2026-05-05 18:17 | 47.89951 | -3.18874 | 38944 ft | 478 kts | 115° |
| 2026-05-05 18:17 | 47.87189 | -3.09914 | 38947 ft | 478 kts | 115° |
| 2026-05-05 18:18 | 47.84406 | -3.00913 | 38943 ft | 478 kts | 115° |
| 2026-05-05 18:18 | 47.81614 | -2.91915 | 38962 ft | 478 kts | 115° |
| 2026-05-05 18:19 | 47.78825 | -2.82954 | 38952 ft | 477 kts | 116° |
| 2026-05-05 18:19 | 47.76032 | -2.74025 | 38914 ft | 476 kts | 115° |
| 2026-05-05 18:20 | 47.73230 | -2.65090 | 38909 ft | 476 kts | 116° |
| 2026-05-05 18:20 | 47.70444 | -2.56241 | 38910 ft | 476 kts | 115° |
| 2026-05-05 18:21 | 47.67372 | -2.47552 | 38918 ft | 475 kts | 123° |
| 2026-05-05 18:21 | 47.63694 | -2.39424 | 38923 ft | 474 kts | 125° |
| 2026-05-05 18:22 | 47.60014 | -2.31314 | 38916 ft | 474 kts | 124° |
| 2026-05-05 18:22 | 47.56329 | -2.23189 | 38913 ft | 474 kts | 124° |
| 2026-05-05 18:23 | 47.52639 | -2.15085 | 38907 ft | 474 kts | 125° |
| 2026-05-05 18:23 | 47.48965 | -2.07041 | 38904 ft | 475 kts | 125° |
| 2026-05-05 18:24 | 47.45257 | -1.98943 | 38905 ft | 476 kts | 125° |
| 2026-05-05 18:24 | 47.41539 | -1.90855 | 38906 ft | 476 kts | 125° |
| 2026-05-05 18:25 | 47.37816 | -1.82777 | 38894 ft | 476 kts | 125° |
| 2026-05-05 18:25 | 47.34091 | -1.74712 | 38883 ft | 476 kts | 126° |
| 2026-05-05 18:26 | 47.30358 | -1.66660 | 38881 ft | 476 kts | 126° |
| 2026-05-05 18:26 | 47.26617 | -1.58613 | 38889 ft | 475 kts | 126° |
| 2026-05-05 18:27 | 47.22873 | -1.50579 | 38887 ft | 475 kts | 126° |
| 2026-05-05 18:27 | 47.19127 | -1.42570 | 38884 ft | 475 kts | 126° |
| 2026-05-05 18:28 | 47.13497 | -1.30574 | 38875 ft | 475 kts | 126° |
| 2026-05-05 18:28 | 47.09739 | -1.22593 | 38872 ft | 475 kts | 126° |
| 2026-05-05 18:29 | 47.05996 | -1.14673 | 38875 ft | 475 kts | 126° |
| 2026-05-05 18:29 | 47.02224 | -1.06707 | 38875 ft | 475 kts | 126° |
| 2026-05-05 18:30 | 46.98444 | -0.98748 | 38875 ft | 475 kts | 126° |
| 2026-05-05 18:30 | 46.94661 | -0.90812 | 38866 ft | 476 kts | 126° |
| 2026-05-05 18:31 | 46.90890 | -0.82916 | 38864 ft | 476 kts | 126° |
| 2026-05-05 18:31 | 46.87086 | -0.74974 | 38864 ft | 476 kts | 127° |
| 2026-05-05 18:32 | 46.83279 | -0.67055 | 38870 ft | 476 kts | 127° |
| 2026-05-05 18:32 | 46.79464 | -0.59140 | 38864 ft | 477 kts | 127° |
| 2026-05-05 18:33 | 46.75646 | -0.51237 | 38862 ft | 477 kts | 127° |
| 2026-05-05 18:33 | 46.71818 | -0.43342 | 38871 ft | 477 kts | 127° |
| 2026-05-05 18:34 | 46.67989 | -0.35462 | 38877 ft | 477 kts | 127° |
| 2026-05-05 18:34 | 46.64151 | -0.27581 | 38866 ft | 477 kts | 127° |
| 2026-05-05 18:35 | 46.60601 | -0.19418 | 38873 ft | 478 kts | 121° |
| 2026-05-05 18:35 | 46.57280 | -0.11051 | 38871 ft | 478 kts | 122° |
| 2026-05-05 18:36 | 46.54497 | -0.04097 | 38870 ft | 479 kts | 122° |
| 2026-05-05 18:36 | 46.51135 | 0.04244 | 38880 ft | 479 kts | 122° |
| 2026-05-05 18:37 | 46.47760 | 0.12584 | 38877 ft | 479 kts | 122° |
| 2026-05-05 18:37 | 46.44380 | 0.20906 | 38884 ft | 479 kts | 122° |
| 2026-05-05 18:38 | 46.40993 | 0.29226 | 38882 ft | 479 kts | 122° |
| 2026-05-05 18:38 | 46.37603 | 0.37526 | 38874 ft | 479 kts | 122° |
| 2026-05-05 18:39 | 46.34203 | 0.45826 | 38870 ft | 479 kts | 122° |
| 2026-05-05 18:39 | 46.30796 | 0.54120 | 38883 ft | 479 kts | 122° |
| 2026-05-05 18:40 | 46.27401 | 0.62356 | 38878 ft | 480 kts | 122° |
| 2026-05-05 18:40 | 46.23977 | 0.70641 | 38887 ft | 480 kts | 122° |
| 2026-05-05 18:41 | 46.20543 | 0.78925 | 38901 ft | 480 kts | 122° |
| 2026-05-05 18:41 | 46.17107 | 0.87190 | 38898 ft | 480 kts | 123° |
| 2026-05-05 18:42 | 46.13662 | 0.95450 | 38901 ft | 480 kts | 123° |
| 2026-05-05 18:42 | 46.10232 | 1.03648 | 38889 ft | 481 kts | 123° |
| 2026-05-05 18:43 | 46.06773 | 1.11893 | 38889 ft | 481 kts | 123° |
| 2026-05-05 18:43 | 46.03309 | 1.20126 | 38897 ft | 481 kts | 123° |
| 2026-05-05 18:44 | 45.99837 | 1.28354 | 38910 ft | 481 kts | 123° |
| 2026-05-05 18:44 | 45.96723 | 1.36867 | 38906 ft | 484 kts | 111° |
| 2026-05-05 18:45 | 45.95314 | 1.46345 | 38892 ft | 489 kts | 95° |
| 2026-05-05 18:45 | 45.95549 | 1.56130 | 38896 ft | 491 kts | 88° |
| 2026-05-05 18:46 | 45.95958 | 1.65952 | 38624 ft | 491 kts | 88° |
| 2026-05-05 18:46 | 45.96145 | 1.70820 | 38248 ft | 487 kts | 88° |
| 2026-05-05 18:46 | 45.96327 | 1.75658 | 37965 ft | 483 kts | 88° |
| 2026-05-05 18:47 | 45.96683 | 1.85301 | 37904 ft | 489 kts | 88° |
| 2026-05-05 18:47 | 45.97038 | 1.95109 | 37898 ft | 491 kts | 88° |
| 2026-05-05 18:48 | 45.97388 | 2.04916 | 37898 ft | 492 kts | 89° |
| 2026-05-05 18:48 | 45.97728 | 2.14733 | 37897 ft | 492 kts | 89° |
| 2026-05-05 18:49 | 45.98060 | 2.24562 | 37892 ft | 492 kts | 89° |
| 2026-05-05 18:49 | 45.98383 | 2.34386 | 37893 ft | 492 kts | 89° |
| 2026-05-05 18:50 | 45.98698 | 2.44220 | 37878 ft | 492 kts | 89° |
| 2026-05-05 18:50 | 45.99005 | 2.54064 | 37880 ft | 493 kts | 89° |
| 2026-05-05 18:51 | 45.99302 | 2.63856 | 37880 ft | 493 kts | 89° |
| 2026-05-05 18:51 | 45.99592 | 2.73718 | 37883 ft | 494 kts | 89° |
| 2026-05-05 18:52 | 45.99344 | 2.83570 | 37937 ft | 493 kts | 99° |
| 2026-05-05 18:52 | 45.98802 | 2.88426 | 38052 ft | 492 kts | 104° |
| 2026-05-05 18:52 | 45.98042 | 2.93227 | 38154 ft | 492 kts | 105° |
| 2026-05-05 18:53 | 45.97286 | 2.98021 | 38280 ft | 492 kts | 105° |
| 2026-05-05 18:53 | 45.96537 | 3.02829 | 38395 ft | 492 kts | 104° |
| 2026-05-05 18:53 | 45.95036 | 3.12439 | 38604 ft | 493 kts | 105° |
| 2026-05-05 18:54 | 45.93523 | 3.22030 | 38808 ft | 492 kts | 105° |
| 2026-05-05 18:54 | 45.92001 | 3.31603 | 38883 ft | 492 kts | 105° |
| 2026-05-05 18:55 | 45.90471 | 3.41176 | 38881 ft | 491 kts | 105° |
| 2026-05-05 18:55 | 45.88932 | 3.50740 | 38882 ft | 491 kts | 105° |
| 2026-05-05 18:56 | 45.87413 | 3.60235 | 38884 ft | 492 kts | 105° |
| 2026-05-05 18:56 | 45.85946 | 3.69812 | 38884 ft | 492 kts | 105° |
| 2026-05-05 18:57 | 45.84468 | 3.79399 | 38882 ft | 491 kts | 105° |
| 2026-05-05 18:57 | 45.82976 | 3.88964 | 38880 ft | 491 kts | 105° |
| 2026-05-05 18:58 | 45.81477 | 3.98510 | 38883 ft | 490 kts | 105° |
| 2026-05-05 18:58 | 45.79972 | 4.08033 | 38882 ft | 490 kts | 105° |
| 2026-05-05 18:59 | 45.78470 | 4.17482 | 38879 ft | 489 kts | 105° |
| 2026-05-05 18:59 | 45.76950 | 4.26991 | 38878 ft | 489 kts | 105° |
| 2026-05-05 19:00 | 45.75426 | 4.36481 | 38878 ft | 487 kts | 106° |
| 2026-05-05 19:00 | 45.73900 | 4.45916 | 38878 ft | 486 kts | 106° |
| 2026-05-05 19:01 | 45.72367 | 4.55342 | 38873 ft | 486 kts | 106° |
| 2026-05-05 19:01 | 45.70824 | 4.64772 | 38872 ft | 486 kts | 106° |
| 2026-05-05 19:02 | 45.69277 | 4.74186 | 38876 ft | 486 kts | 107° |
| 2026-05-05 19:02 | 45.67732 | 4.83529 | 38871 ft | 485 kts | 107° |
| 2026-05-05 19:03 | 45.66167 | 4.92933 | 38866 ft | 485 kts | 107° |
| 2026-05-05 19:03 | 45.64599 | 5.02313 | 38869 ft | 485 kts | 107° |
| 2026-05-05 19:04 | 45.63021 | 5.11701 | 38866 ft | 486 kts | 107° |
| 2026-05-05 19:04 | 45.61424 | 5.21148 | 38879 ft | 491 kts | 107° |
| 2026-05-05 19:05 | 45.59813 | 5.30626 | 38880 ft | 490 kts | 107° |
| 2026-05-05 19:05 | 45.58199 | 5.40080 | 38880 ft | 490 kts | 107° |
| 2026-05-05 19:06 | 45.56586 | 5.49468 | 38879 ft | 489 kts | 107° |
| 2026-05-05 19:06 | 45.54921 | 5.58836 | 38871 ft | 485 kts | 109° |
| 2026-05-05 19:07 | 45.53130 | 5.68104 | 38863 ft | 484 kts | 109° |
| 2026-05-05 19:07 | 45.51341 | 5.77369 | 38872 ft | 484 kts | 109° |
| 2026-05-05 19:08 | 45.49554 | 5.86668 | 38883 ft | 487 kts | 110° |
| 2026-05-05 19:08 | 45.47097 | 5.95585 | 38884 ft | 480 kts | 122° |
| 2026-05-05 19:09 | 45.43528 | 6.03547 | 38889 ft | 473 kts | 133° |
| 2026-05-05 19:09 | 45.39391 | 6.10756 | 38893 ft | 475 kts | 133° |
| 2026-05-05 19:10 | 45.35223 | 6.18077 | 38894 ft | 476 kts | 133° |
| 2026-05-05 19:10 | 45.31067 | 6.25376 | 38903 ft | 474 kts | 134° |
| 2026-05-05 19:11 | 45.26894 | 6.32667 | 38906 ft | 476 kts | 134° |
| 2026-05-05 19:11 | 45.22707 | 6.39945 | 39050 ft | 476 kts | 134° |
| 2026-05-05 19:12 | 45.18521 | 6.47214 | 39120 ft | 477 kts | 133° |
| 2026-05-05 19:12 | 45.14392 | 6.54612 | 39215 ft | 480 kts | 129° |
| 2026-05-05 19:13 | 45.10989 | 6.62802 | 39415 ft | 485 kts | 120° |
| 2026-05-05 19:13 | 45.08551 | 6.71688 | 39567 ft | 490 kts | 112° |
| 2026-05-05 19:14 | 45.07497 | 6.76271 | 39686 ft | 490 kts | 112° |
| 2026-05-05 19:14 | 45.06426 | 6.80855 | 39783 ft | 490 kts | 112° |
| 2026-05-05 19:14 | 45.05346 | 6.85429 | 39886 ft | 490 kts | 112° |
| 2026-05-05 19:14 | 45.04261 | 6.89995 | 39940 ft | 490 kts | 112° |
| 2026-05-05 19:15 | 45.02079 | 6.99130 | 39972 ft | 491 kts | 113° |
| 2026-05-05 19:15 | 44.99184 | 7.07693 | 39968 ft | 477 kts | 131° |
| 2026-05-05 19:16 | 44.94827 | 7.14706 | 39965 ft | 476 kts | 137° |
| 2026-05-05 19:16 | 44.90489 | 7.21734 | 39602 ft | 473 kts | 135° |
| 2026-05-05 19:17 | 44.88380 | 7.25299 | 39190 ft | 471 kts | 135° |
| 2026-05-05 19:17 | 44.86287 | 7.28833 | 39008 ft | 468 kts | 135° |
| 2026-05-05 19:17 | 44.82081 | 7.35857 | 38966 ft | 475 kts | 135° |
| 2026-05-05 19:18 | 44.77799 | 7.42960 | 38962 ft | 476 kts | 135° |
| 2026-05-05 19:18 | 44.73509 | 7.50052 | 38966 ft | 476 kts | 135° |
| 2026-05-05 19:19 | 44.69206 | 7.57144 | 38963 ft | 476 kts | 135° |
| 2026-05-05 19:19 | 44.64888 | 7.64244 | 38967 ft | 479 kts | 136° |
| 2026-05-05 19:20 | 44.60539 | 7.71374 | 38966 ft | 481 kts | 136° |
| 2026-05-05 19:20 | 44.56201 | 7.78473 | 38966 ft | 478 kts | 136° |
| 2026-05-05 19:21 | 44.51863 | 7.85550 | 38963 ft | 479 kts | 136° |
| 2026-05-05 19:21 | 44.47517 | 7.92624 | 38961 ft | 479 kts | 136° |
| 2026-05-05 19:22 | 44.43165 | 7.99688 | 38959 ft | 479 kts | 136° |
| 2026-05-05 19:22 | 44.38794 | 8.06765 | 38963 ft | 481 kts | 136° |
| 2026-05-05 19:23 | 44.34436 | 8.13807 | 38962 ft | 482 kts | 136° |
| 2026-05-05 19:23 | 44.30058 | 8.20867 | 38951 ft | 481 kts | 136° |
| 2026-05-05 19:24 | 44.25667 | 8.27925 | 38959 ft | 481 kts | 136° |
| 2026-05-05 19:24 | 44.21275 | 8.34965 | 38932 ft | 480 kts | 136° |
| 2026-05-05 19:25 | 44.17632 | 8.40795 | 38955 ft | 480 kts | 137° |
| 2026-05-05 19:25 | 44.13237 | 8.47809 | 38946 ft | 480 kts | 137° |
| 2026-05-05 19:26 | 44.08843 | 8.54812 | 38938 ft | 479 kts | 137° |
| 2026-05-05 19:26 | 44.04450 | 8.61794 | 38937 ft | 480 kts | 137° |
| 2026-05-05 19:27 | 44.00048 | 8.68765 | 38942 ft | 480 kts | 137° |
| 2026-05-05 19:27 | 43.95638 | 8.75738 | 38928 ft | 481 kts | 138° |
| 2026-05-05 19:28 | 43.91216 | 8.82710 | 38943 ft | 481 kts | 138° |
| 2026-05-05 19:28 | 43.86813 | 8.89639 | 38946 ft | 482 kts | 138° |
| 2026-05-05 19:29 | 43.82368 | 8.96615 | 38943 ft | 483 kts | 138° |
| 2026-05-05 19:29 | 43.77917 | 9.03581 | 38952 ft | 483 kts | 138° |
| 2026-05-05 19:30 | 43.73464 | 9.10534 | 38942 ft | 484 kts | 139° |
| 2026-05-05 19:30 | 43.68985 | 9.17510 | 38947 ft | 485 kts | 139° |
| 2026-05-05 19:31 | 43.64502 | 9.24477 | 38943 ft | 486 kts | 139° |
| 2026-05-05 19:31 | 43.60005 | 9.31448 | 38956 ft | 487 kts | 139° |
| 2026-05-05 19:32 | 43.57780 | 9.34891 | 38854 ft | 487 kts | 139° |
| 2026-05-05 19:32 | 43.55523 | 9.38380 | 38535 ft | 488 kts | 139° |
| 2026-05-05 19:32 | 43.53263 | 9.41871 | 38112 ft | 486 kts | 139° |
| 2026-05-05 19:32 | 43.51015 | 9.45341 | 37695 ft | 485 kts | 139° |
| 2026-05-05 19:33 | 43.48765 | 9.48804 | 37246 ft | 485 kts | 139° |
| 2026-05-05 19:33 | 43.46510 | 9.52269 | 36844 ft | 487 kts | 139° |
| 2026-05-05 19:33 | 43.44247 | 9.55745 | 36428 ft | 487 kts | 139° |
| 2026-05-05 19:33 | 43.41985 | 9.59216 | 35958 ft | 487 kts | 140° |
| 2026-05-05 19:34 | 43.39728 | 9.62677 | 35506 ft | 486 kts | 140° |
| 2026-05-05 19:34 | 43.37473 | 9.66130 | 35057 ft | 485 kts | 140° |
| 2026-05-05 19:34 | 43.35219 | 9.69577 | 34623 ft | 485 kts | 140° |
| 2026-05-05 19:35 | 43.30737 | 9.76416 | 33798 ft | 485 kts | 140° |
| 2026-05-05 19:35 | 43.28448 | 9.79898 | 33386 ft | 486 kts | 140° |
| 2026-05-05 19:35 | 43.26208 | 9.83302 | 33051 ft | 487 kts | 140° |
| 2026-05-05 19:36 | 43.21637 | 9.90237 | 32966 ft | 490 kts | 140° |
| 2026-05-05 19:36 | 43.17061 | 9.97174 | 32965 ft | 492 kts | 139° |
| 2026-05-05 19:36 | 43.14761 | 10.00654 | 32849 ft | 491 kts | 139° |
| 2026-05-05 19:37 | 43.12472 | 10.04113 | 32519 ft | 491 kts | 139° |
| 2026-05-05 19:37 | 43.10171 | 10.07584 | 32175 ft | 491 kts | 139° |
| 2026-05-05 19:37 | 43.07873 | 10.11045 | 31794 ft | 491 kts | 139° |
| 2026-05-05 19:37 | 43.05576 | 10.14501 | 31418 ft | 490 kts | 139° |
| 2026-05-05 19:38 | 43.03286 | 10.17946 | 31048 ft | 487 kts | 139° |
| 2026-05-05 19:38 | 43.01044 | 10.21314 | 30816 ft | 484 kts | 138° |
| 2026-05-05 19:38 | 42.98769 | 10.24720 | 30803 ft | 487 kts | 138° |
| 2026-05-05 19:39 | 42.94183 | 10.31578 | 30793 ft | 491 kts | 138° |
| 2026-05-05 19:39 | 42.89584 | 10.38448 | 30795 ft | 490 kts | 138° |
| 2026-05-05 19:40 | 42.84984 | 10.45303 | 30583 ft | 490 kts | 138° |
| 2026-05-05 19:40 | 42.82828 | 10.48894 | 30221 ft | 490 kts | 129° |
| 2026-05-05 19:40 | 42.81023 | 10.52837 | 29785 ft | 491 kts | 125° |
| 2026-05-05 19:40 | 42.79328 | 10.56869 | 29261 ft | 489 kts | 124° |
| 2026-05-05 19:41 | 42.77644 | 10.60862 | 28721 ft | 484 kts | 125° |
| 2026-05-05 19:41 | 42.75948 | 10.64785 | 28182 ft | 477 kts | 125° |
| 2026-05-05 19:41 | 42.74255 | 10.68616 | 27709 ft | 468 kts | 126° |
| 2026-05-05 19:41 | 42.72576 | 10.72363 | 27249 ft | 460 kts | 126° |
| 2026-05-05 19:42 | 42.70913 | 10.76052 | 26774 ft | 453 kts | 126° |
| 2026-05-05 19:42 | 42.69272 | 10.79676 | 26311 ft | 446 kts | 126° |
| 2026-05-05 19:42 | 42.67657 | 10.83239 | 25872 ft | 439 kts | 126° |
| 2026-05-05 19:42 | 42.66066 | 10.86744 | 25399 ft | 434 kts | 126° |
| 2026-05-05 19:43 | 42.64490 | 10.90212 | 24920 ft | 428 kts | 126° |
| 2026-05-05 19:43 | 42.62936 | 10.93630 | 24453 ft | 422 kts | 126° |
| 2026-05-05 19:43 | 42.61401 | 10.97001 | 23994 ft | 417 kts | 125° |
| 2026-05-05 19:43 | 42.59887 | 11.00327 | 23536 ft | 411 kts | 125° |
| 2026-05-05 19:44 | 42.58393 | 11.03605 | 22990 ft | 406 kts | 125° |
| 2026-05-05 19:44 | 42.56919 | 11.06838 | 22444 ft | 400 kts | 125° |
| 2026-05-05 19:44 | 42.55462 | 11.10031 | 21926 ft | 395 kts | 125° |
| 2026-05-05 19:44 | 42.54045 | 11.13132 | 21415 ft | 389 kts | 126° |
| 2026-05-05 19:45 | 42.52626 | 11.16234 | 20915 ft | 384 kts | 126° |
| 2026-05-05 19:45 | 42.51226 | 11.19290 | 20418 ft | 379 kts | 126° |
| 2026-05-05 19:45 | 42.49844 | 11.22303 | 19938 ft | 374 kts | 126° |
| 2026-05-05 19:45 | 42.48480 | 11.25276 | 19509 ft | 369 kts | 126° |
| 2026-05-05 19:46 | 42.47123 | 11.28227 | 19060 ft | 369 kts | 126° |
| 2026-05-05 19:46 | 42.45772 | 11.31162 | 18651 ft | 366 kts | 126° |
| 2026-05-05 19:46 | 42.44427 | 11.34081 | 18215 ft | 365 kts | 126° |
| 2026-05-05 19:46 | 42.43099 | 11.36959 | 17746 ft | 363 kts | 126° |
| 2026-05-05 19:47 | 42.41751 | 11.39883 | 17256 ft | 359 kts | 126° |
| 2026-05-05 19:47 | 42.40430 | 11.42742 | 16800 ft | 358 kts | 126° |
| 2026-05-05 19:47 | 42.39129 | 11.45557 | 16347 ft | 356 kts | 126° |
| 2026-05-05 19:47 | 42.37826 | 11.48375 | 16091 ft | 351 kts | 126° |
| 2026-05-05 19:48 | 42.36526 | 11.51180 | 16027 ft | 354 kts | 126° |
| 2026-05-05 19:48 | 42.35216 | 11.54003 | 15976 ft | 354 kts | 126° |
| 2026-05-05 19:48 | 42.33919 | 11.56801 | 15672 ft | 347 kts | 126° |
| 2026-05-05 19:48 | 42.32666 | 11.59509 | 15304 ft | 332 kts | 126° |
| 2026-05-05 19:49 | 42.31465 | 11.62101 | 14928 ft | 318 kts | 126° |
| 2026-05-05 19:49 | 42.30680 | 11.63792 | 14657 ft | 310 kts | 126° |
| 2026-05-05 19:49 | 42.29188 | 11.66998 | 14085 ft | 298 kts | 126° |
| 2026-05-05 19:49 | 42.28099 | 11.69331 | 13637 ft | 289 kts | 126° |
| 2026-05-05 19:50 | 42.27042 | 11.71595 | 13158 ft | 281 kts | 126° |
| 2026-05-05 19:50 | 42.26013 | 11.73797 | 12694 ft | 275 kts | 126° |
| 2026-05-05 19:50 | 42.24991 | 11.75982 | 12235 ft | 276 kts | 126° |
| 2026-05-05 19:50 | 42.23973 | 11.78156 | 11787 ft | 271 kts | 126° |
| 2026-05-05 19:51 | 42.22977 | 11.80288 | 11330 ft | 266 kts | 126° |
| 2026-05-05 19:51 | 42.22000 | 11.82374 | 10897 ft | 259 kts | 126° |
| 2026-05-05 19:51 | 42.21052 | 11.84406 | 10467 ft | 253 kts | 127° |
| 2026-05-05 19:51 | 42.20127 | 11.86383 | 10078 ft | 246 kts | 127° |
| 2026-05-05 19:52 | 42.19217 | 11.88327 | 9706 ft | 244 kts | 127° |
| 2026-05-05 19:52 | 42.18318 | 11.90234 | 9398 ft | 239 kts | 126° |
| 2026-05-05 19:52 | 42.17436 | 11.92110 | 9089 ft | 235 kts | 127° |
| 2026-05-05 19:52 | 42.16577 | 11.93939 | 8787 ft | 232 kts | 127° |
| 2026-05-05 19:53 | 42.15718 | 11.95763 | 8481 ft | 228 kts | 126° |
| 2026-05-05 19:53 | 42.14868 | 11.97577 | 8193 ft | 229 kts | 126° |
| 2026-05-05 19:53 | 42.14019 | 11.99380 | 7891 ft | 224 kts | 128° |
| 2026-05-05 19:53 | 42.13001 | 12.00899 | 7608 ft | 218 kts | 143° |
| 2026-05-05 19:54 | 42.11847 | 12.02234 | 7320 ft | 217 kts | 145° |
| 2026-05-05 19:54 | 42.10685 | 12.03499 | 7016 ft | 212 kts | 146° |
| 2026-05-05 19:54 | 42.09667 | 12.04959 | 6731 ft | 219 kts | 130° |
| 2026-05-05 19:54 | 42.08813 | 12.06682 | 6434 ft | 220 kts | 125° |
| 2026-05-05 19:55 | 42.08018 | 12.08422 | 6127 ft | 216 kts | 125° |
| 2026-05-05 19:55 | 42.07226 | 12.10131 | 5827 ft | 215 kts | 127° |
| 2026-05-05 19:55 | 42.06371 | 12.11763 | 5506 ft | 212 kts | 137° |
| 2026-05-05 19:55 | 42.05194 | 12.12783 | 5360 ft | 194 kts | 164° |
| 2026-05-05 19:56 | 42.03965 | 12.13252 | 5287 ft | 181 kts | 167° |
| 2026-05-05 19:56 | 42.02742 | 12.13718 | 5009 ft | 182 kts | 166° |
| 2026-05-05 19:56 | 42.01520 | 12.14211 | 4723 ft | 183 kts | 165° |
| 2026-05-05 19:56 | 42.00319 | 12.14716 | 4530 ft | 179 kts | 165° |
| 2026-05-05 19:57 | 41.99144 | 12.15210 | 4292 ft | 175 kts | 165° |
| 2026-05-05 19:57 | 41.98374 | 12.15533 | 4101 ft | 174 kts | 165° |
| 2026-05-05 19:57 | 41.96859 | 12.16199 | 4022 ft | 170 kts | 162° |
| 2026-05-05 19:57 | 41.95774 | 12.16688 | 3991 ft | 157 kts | 166° |
| 2026-05-05 19:58 | 41.94721 | 12.17117 | 3765 ft | 161 kts | 166° |
| 2026-05-05 19:58 | 41.93643 | 12.17575 | 3400 ft | 164 kts | 166° |
| 2026-05-05 19:58 | 41.92561 | 12.18024 | 3006 ft | 160 kts | 165° |
| 2026-05-05 19:58 | 41.91523 | 12.18463 | 2578 ft | 155 kts | 163° |
| 2026-05-05 19:59 | 41.90502 | 12.18847 | 2129 ft | 149 kts | 166° |
| 2026-05-05 19:59 | 41.89522 | 12.19229 | 1787 ft | 145 kts | 163° |
| 2026-05-05 19:59 | 41.88585 | 12.19653 | 1480 ft | 139 kts | 161° |
| 2026-05-05 19:59 | 41.87686 | 12.20052 | 1223 ft | 132 kts | 161° |
| 2026-05-05 20:00 | 41.86767 | 12.20439 | 1065 ft | 157 kts | 162° |
| 2026-05-05 20:00 | 41.85667 | 12.20900 | 958 ft | 163 kts | 161° |
| 2026-05-05 20:00 | 41.84633 | 12.21323 | 719 ft | 148 kts | 160° |
| 2026-05-05 20:00 | 41.83615 | 12.21728 | 529 ft | 157 kts | 156° |
| 2026-05-05 20:01 | 41.82567 | 12.22206 | 293 ft | 157 kts | 158° |
| 2026-05-05 20:01 | 41.81550 | 12.22634 | 69 ft | 150 kts | 159° |
| 2026-05-05 20:01 | 41.80634 | 12.23029 | 21 ft | 115 kts | 162° |
| 2026-05-05 20:01 | 41.80064 | 12.23263 | 23 ft | 57 kts | 164° |
| 2026-05-05 20:02 | 41.79770 | 12.23384 | 21 ft | 40 kts | 162° |
| 2026-05-05 20:02 | 41.79540 | 12.23519 | 20 ft | 17 kts | 148° |
| 2026-05-05 20:02 | 41.79439 | 12.23639 | 20 ft | 22 kts | 134° |
| 2026-05-05 20:02 | 41.79377 | 12.23728 | 20 ft | 1 kts | 132° |
| 2026-05-05 20:03 | 41.79357 | 12.23758 | 22 ft | 0 kts | 132° |
| 2026-05-05 20:03 | 41.79354 | 12.23762 | 22 ft | 0 kts | 132° |
| 2026-05-05 20:03 | 41.79354 | 12.23761 | 22 ft | 0 kts | 132° |
| 2026-05-05 20:04 | 41.79341 | 12.23782 | 25 ft | 8 kts | 130° |
| 2026-05-05 20:04 | 41.79319 | 12.23886 | 21 ft | 16 kts | 89° |
| 2026-05-05 20:04 | 41.79372 | 12.24005 | 21 ft | 15 kts | 22° |
| 2026-05-05 20:04 | 41.79492 | 12.23965 | 20 ft | 23 kts | 341° |
| 2026-05-05 20:05 | 41.79612 | 12.23904 | 20 ft | 19 kts | 339° |
| 2026-05-05 20:05 | 41.79644 | 12.23888 | 20 ft | 7 kts | 341° |
| 2026-05-05 20:05 | 41.79712 | 12.23938 | 20 ft | 17 kts | 54° |
| 2026-05-05 20:05 | 41.79769 | 12.24123 | 23 ft | 26 kts | 70° |
| 2026-05-05 20:06 | 41.79814 | 12.24288 | 22 ft | 15 kts | 70° |
| 2026-05-05 20:06 | 41.79840 | 12.24383 | 20 ft | 9 kts | 70° |
| 2026-05-05 20:06 | 41.79845 | 12.24413 | 21 ft | 3 kts | 77° |
| 2026-05-05 20:06 | 41.79856 | 12.24463 | 23 ft | 8 kts | 75° |
| 2026-05-05 20:07 | 41.79837 | 12.24538 | 23 ft | 9 kts | 124° |
| 2026-05-05 20:07 | 41.79820 | 12.24570 | 21 ft | 1 kts | 130° |
| 2026-05-05 20:07 | 41.79818 | 12.24573 | 21 ft | 0 kts | 130° |
| 2026-05-05 20:08 | 41.79818 | 12.24574 | 21 ft | 1 kts | 130° |
| 2026-05-05 20:08 | 41.79814 | 12.24580 | 21 ft | 0 kts | 130° |
| 2026-05-05 20:08 | 41.79812 | 12.24583 | 21 ft | 0 kts | 130° |
| 2026-05-05 20:10 | 41.79812 | 12.24582 | 21 ft | 0 kts | 130° |